<?xml version="1.0" encoding="UTF-8" standalone="no" ?>
<gpx xmlns="http://www.topografix.com/GPX/1/1" xmlns:xsi="http://www.w3.org/2001/XMLSchema-instance" xsi:schemaLocation="http://www.topografix.com/GPX/1/1 http://www.topografix.com/GPX/1/1/gpx.xsd" version="1.1" creator="VisuGPX - https://www.visugpx.com">
  <metadata>
    <name>balade plage barneville</name>
    <desc><![CDATA[
]]></desc>
  </metadata>
  <trk>
    <name><![CDATA[SityTrail - balade plage barneville]]></name>
    <trkseg>
      <trkpt lat="49.36662" lon="-1.76937">
        <ele>11</ele>
        <time>2023-08-22T14:51:22.490+00:00</time>
      </trkpt>
      <trkpt lat="49.36662" lon="-1.76937">
        <ele>11</ele>
        <time>2023-08-22T14:51:22.490+00:00</time>
      </trkpt>
      <trkpt lat="49.36661" lon="-1.76937">
        <ele>11</ele>
        <time>2023-08-22T14:51:23.462+00:00</time>
      </trkpt>
      <trkpt lat="49.36662" lon="-1.76959">
        <ele>9</ele>
        <time>2023-08-22T14:51:31.807+00:00</time>
      </trkpt>
      <trkpt lat="49.36661" lon="-1.76977">
        <ele>9</ele>
        <time>2023-08-22T14:51:35.899+00:00</time>
      </trkpt>
      <trkpt lat="49.36664" lon="-1.76982">
        <ele>9</ele>
        <time>2023-08-22T14:51:40.097+00:00</time>
      </trkpt>
      <trkpt lat="49.36667" lon="-1.76986">
        <ele>8</ele>
        <time>2023-08-22T14:51:44.136+00:00</time>
      </trkpt>
      <trkpt lat="49.3667" lon="-1.76991">
        <ele>8</ele>
        <time>2023-08-22T14:51:48.293+00:00</time>
      </trkpt>
      <trkpt lat="49.36673" lon="-1.76996">
        <ele>8</ele>
        <time>2023-08-22T14:51:52.793+00:00</time>
      </trkpt>
      <trkpt lat="49.36676" lon="-1.77001">
        <ele>8</ele>
        <time>2023-08-22T14:51:56.816+00:00</time>
      </trkpt>
      <trkpt lat="49.36681" lon="-1.77004">
        <ele>10</ele>
        <time>2023-08-22T14:52:01.426+00:00</time>
      </trkpt>
      <trkpt lat="49.36684" lon="-1.77008">
        <ele>10</ele>
        <time>2023-08-22T14:52:05.323+00:00</time>
      </trkpt>
      <trkpt lat="49.36688" lon="-1.77014">
        <ele>10</ele>
        <time>2023-08-22T14:52:09.981+00:00</time>
      </trkpt>
      <trkpt lat="49.3669" lon="-1.77019">
        <ele>8</ele>
        <time>2023-08-22T14:52:14.441+00:00</time>
      </trkpt>
      <trkpt lat="49.36694" lon="-1.77025">
        <ele>8</ele>
        <time>2023-08-22T14:52:18.818+00:00</time>
      </trkpt>
      <trkpt lat="49.36696" lon="-1.7703">
        <ele>8</ele>
        <time>2023-08-22T14:52:23.256+00:00</time>
      </trkpt>
      <trkpt lat="49.36699" lon="-1.77037">
        <ele>8</ele>
        <time>2023-08-22T14:52:27.676+00:00</time>
      </trkpt>
      <trkpt lat="49.36704" lon="-1.77044">
        <ele>6</ele>
        <time>2023-08-22T14:52:32.134+00:00</time>
      </trkpt>
      <trkpt lat="49.36708" lon="-1.77051">
        <ele>6</ele>
        <time>2023-08-22T14:52:36.791+00:00</time>
      </trkpt>
      <trkpt lat="49.36712" lon="-1.77056">
        <ele>9</ele>
        <time>2023-08-22T14:52:41.060+00:00</time>
      </trkpt>
      <trkpt lat="49.36716" lon="-1.77064">
        <ele>9</ele>
        <time>2023-08-22T14:52:45.426+00:00</time>
      </trkpt>
      <trkpt lat="49.36719" lon="-1.77071">
        <ele>8</ele>
        <time>2023-08-22T14:52:50.464+00:00</time>
      </trkpt>
      <trkpt lat="49.36712" lon="-1.77085">
        <ele>8</ele>
        <time>2023-08-22T14:54:05.700+00:00</time>
      </trkpt>
      <trkpt lat="49.36715" lon="-1.77089">
        <ele>8</ele>
        <time>2023-08-22T14:54:09.775+00:00</time>
      </trkpt>
      <trkpt lat="49.36718" lon="-1.77095">
        <ele>8</ele>
        <time>2023-08-22T14:54:13.371+00:00</time>
      </trkpt>
      <trkpt lat="49.36722" lon="-1.771">
        <ele>6</ele>
        <time>2023-08-22T14:54:18.404+00:00</time>
      </trkpt>
      <trkpt lat="49.36722" lon="-1.77108">
        <ele>6</ele>
        <time>2023-08-22T14:54:22.780+00:00</time>
      </trkpt>
      <trkpt lat="49.36718" lon="-1.77114">
        <ele>6</ele>
        <time>2023-08-22T14:54:27.336+00:00</time>
      </trkpt>
      <trkpt lat="49.36716" lon="-1.77121">
        <ele>6</ele>
        <time>2023-08-22T14:54:31.391+00:00</time>
      </trkpt>
      <trkpt lat="49.36713" lon="-1.77125">
        <ele>6</ele>
        <time>2023-08-22T14:54:35.814+00:00</time>
      </trkpt>
      <trkpt lat="49.36711" lon="-1.77128">
        <ele>5</ele>
        <time>2023-08-22T14:54:39.967+00:00</time>
      </trkpt>
      <trkpt lat="49.36707" lon="-1.77139">
        <ele>5.9</ele>
        <time>2023-08-22T14:54:52.785+00:00</time>
      </trkpt>
      <trkpt lat="49.36706" lon="-1.77138">
        <ele>5.8</ele>
        <time>2023-08-22T14:54:56.774+00:00</time>
      </trkpt>
      <trkpt lat="49.36705" lon="-1.77139">
        <ele>5.8</ele>
        <time>2023-08-22T14:55:00.370+00:00</time>
      </trkpt>
      <trkpt lat="49.36705" lon="-1.7714">
        <ele>5.8</ele>
        <time>2023-08-22T14:55:04.924+00:00</time>
      </trkpt>
      <trkpt lat="49.36704" lon="-1.77144">
        <ele>5.6</ele>
        <time>2023-08-22T14:55:09.317+00:00</time>
      </trkpt>
      <trkpt lat="49.36701" lon="-1.77149">
        <ele>5.4</ele>
        <time>2023-08-22T14:55:13.510+00:00</time>
      </trkpt>
      <trkpt lat="49.36699" lon="-1.77155">
        <ele>5.2</ele>
        <time>2023-08-22T14:55:17.584+00:00</time>
      </trkpt>
      <trkpt lat="49.36696" lon="-1.7716">
        <ele>5.1</ele>
        <time>2023-08-22T14:55:22.376+00:00</time>
      </trkpt>
      <trkpt lat="49.36693" lon="-1.77165">
        <ele>4.9</ele>
        <time>2023-08-22T14:55:26.570+00:00</time>
      </trkpt>
      <trkpt lat="49.3669" lon="-1.7717">
        <ele>4.6</ele>
        <time>2023-08-22T14:55:31.363+00:00</time>
      </trkpt>
      <trkpt lat="49.36687" lon="-1.77173">
        <ele>4.3</ele>
        <time>2023-08-22T14:55:35.706+00:00</time>
      </trkpt>
      <trkpt lat="49.36684" lon="-1.77173">
        <ele>4.1</ele>
        <time>2023-08-22T14:55:40.220+00:00</time>
      </trkpt>
      <trkpt lat="49.36683" lon="-1.77179">
        <ele>3.9</ele>
        <time>2023-08-22T14:55:44.843+00:00</time>
      </trkpt>
      <trkpt lat="49.36682" lon="-1.77182">
        <ele>3.8</ele>
        <time>2023-08-22T14:55:49.353+00:00</time>
      </trkpt>
      <trkpt lat="49.36684" lon="-1.77187">
        <ele>3.8</ele>
        <time>2023-08-22T14:55:53.461+00:00</time>
      </trkpt>
      <trkpt lat="49.36681" lon="-1.77196">
        <ele>3.5</ele>
        <time>2023-08-22T14:55:57.479+00:00</time>
      </trkpt>
      <trkpt lat="49.36676" lon="-1.77201">
        <ele>3.1</ele>
        <time>2023-08-22T14:56:01.988+00:00</time>
      </trkpt>
      <trkpt lat="49.36672" lon="-1.77205">
        <ele>2.8</ele>
        <time>2023-08-22T14:56:06.497+00:00</time>
      </trkpt>
      <trkpt lat="49.36668" lon="-1.77209">
        <ele>2.5</ele>
        <time>2023-08-22T14:56:11.007+00:00</time>
      </trkpt>
      <trkpt lat="49.36665" lon="-1.77213">
        <ele>2.3</ele>
        <time>2023-08-22T14:56:15.015+00:00</time>
      </trkpt>
      <trkpt lat="49.36661" lon="-1.77219">
        <ele>1.9</ele>
        <time>2023-08-22T14:56:19.524+00:00</time>
      </trkpt>
      <trkpt lat="49.36657" lon="-1.77221">
        <ele>1.7</ele>
        <time>2023-08-22T14:56:23.531+00:00</time>
      </trkpt>
      <trkpt lat="49.36655" lon="-1.77221">
        <ele>1.6</ele>
        <time>2023-08-22T14:56:28.040+00:00</time>
      </trkpt>
      <trkpt lat="49.36656" lon="-1.77228">
        <ele>1.6</ele>
        <time>2023-08-22T14:56:32.650+00:00</time>
      </trkpt>
      <trkpt lat="49.36658" lon="-1.77231">
        <ele>1.7</ele>
        <time>2023-08-22T14:56:36.659+00:00</time>
      </trkpt>
      <trkpt lat="49.36657" lon="-1.77241">
        <ele>1.6</ele>
        <time>2023-08-22T14:56:40.768+00:00</time>
      </trkpt>
      <trkpt lat="49.36656" lon="-1.77249">
        <ele>1.6</ele>
        <time>2023-08-22T14:56:45.277+00:00</time>
      </trkpt>
      <trkpt lat="49.36655" lon="-1.77254">
        <ele>1.6</ele>
        <time>2023-08-22T14:56:49.785+00:00</time>
      </trkpt>
      <trkpt lat="49.36656" lon="-1.7726">
        <ele>1.6</ele>
        <time>2023-08-22T14:56:53.793+00:00</time>
      </trkpt>
      <trkpt lat="49.36656" lon="-1.77266">
        <ele>1.6</ele>
        <time>2023-08-22T14:56:58.402+00:00</time>
      </trkpt>
      <trkpt lat="49.36656" lon="-1.77273">
        <ele>1.6</ele>
        <time>2023-08-22T14:57:02.513+00:00</time>
      </trkpt>
      <trkpt lat="49.36656" lon="-1.77278">
        <ele>1.6</ele>
        <time>2023-08-22T14:57:06.621+00:00</time>
      </trkpt>
      <trkpt lat="49.36656" lon="-1.77285">
        <ele>1.5</ele>
        <time>2023-08-22T14:57:11.232+00:00</time>
      </trkpt>
      <trkpt lat="49.36658" lon="-1.77289">
        <ele>1.4</ele>
        <time>2023-08-22T14:57:15.241+00:00</time>
      </trkpt>
      <trkpt lat="49.36659" lon="-1.77294">
        <ele>1.3</ele>
        <time>2023-08-22T14:57:20.353+00:00</time>
      </trkpt>
      <trkpt lat="49.36659" lon="-1.77301">
        <ele>1.1</ele>
        <time>2023-08-22T14:57:24.459+00:00</time>
      </trkpt>
      <trkpt lat="49.36659" lon="-1.77308">
        <ele>1</ele>
        <time>2023-08-22T14:57:28.981+00:00</time>
      </trkpt>
      <trkpt lat="49.36658" lon="-1.77314">
        <ele>1</ele>
        <time>2023-08-22T14:57:33.489+00:00</time>
      </trkpt>
      <trkpt lat="49.36658" lon="-1.77321">
        <ele>1</ele>
        <time>2023-08-22T14:57:47.027+00:00</time>
      </trkpt>
      <trkpt lat="49.36659" lon="-1.77327">
        <ele>1</ele>
        <time>2023-08-22T14:57:51.544+00:00</time>
      </trkpt>
      <trkpt lat="49.3666" lon="-1.77328">
        <ele>1</ele>
        <time>2023-08-22T14:57:55.554+00:00</time>
      </trkpt>
      <trkpt lat="49.36663" lon="-1.77331">
        <ele>1</ele>
        <time>2023-08-22T14:58:00.256+00:00</time>
      </trkpt>
      <trkpt lat="49.36666" lon="-1.77342">
        <ele>1</ele>
        <time>2023-08-22T14:58:04.373+00:00</time>
      </trkpt>
      <trkpt lat="49.36666" lon="-1.77354">
        <ele>1</ele>
        <time>2023-08-22T14:58:08.884+00:00</time>
      </trkpt>
      <trkpt lat="49.36668" lon="-1.77362">
        <ele>1</ele>
        <time>2023-08-22T14:58:12.892+00:00</time>
      </trkpt>
      <trkpt lat="49.36668" lon="-1.77369">
        <ele>1</ele>
        <time>2023-08-22T14:58:16.999+00:00</time>
      </trkpt>
      <trkpt lat="49.36668" lon="-1.77375">
        <ele>1</ele>
        <time>2023-08-22T14:58:21.506+00:00</time>
      </trkpt>
      <trkpt lat="49.3667" lon="-1.77379">
        <ele>1</ele>
        <time>2023-08-22T14:58:25.513+00:00</time>
      </trkpt>
      <trkpt lat="49.36673" lon="-1.77383">
        <ele>1</ele>
        <time>2023-08-22T14:58:30.022+00:00</time>
      </trkpt>
      <trkpt lat="49.36675" lon="-1.77389">
        <ele>1</ele>
        <time>2023-08-22T14:58:34.529+00:00</time>
      </trkpt>
      <trkpt lat="49.36677" lon="-1.77394">
        <ele>1</ele>
        <time>2023-08-22T14:58:39.135+00:00</time>
      </trkpt>
      <trkpt lat="49.36679" lon="-1.77398">
        <ele>1</ele>
        <time>2023-08-22T14:58:43.742+00:00</time>
      </trkpt>
      <trkpt lat="49.36681" lon="-1.77403">
        <ele>1</ele>
        <time>2023-08-22T14:58:48.249+00:00</time>
      </trkpt>
      <trkpt lat="49.36683" lon="-1.77411">
        <ele>1</ele>
        <time>2023-08-22T14:58:52.254+00:00</time>
      </trkpt>
      <trkpt lat="49.36685" lon="-1.77415">
        <ele>1</ele>
        <time>2023-08-22T14:58:56.781+00:00</time>
      </trkpt>
      <trkpt lat="49.36688" lon="-1.77422">
        <ele>1</ele>
        <time>2023-08-22T14:59:01.366+00:00</time>
      </trkpt>
      <trkpt lat="49.36689" lon="-1.77429">
        <ele>1</ele>
        <time>2023-08-22T14:59:05.972+00:00</time>
      </trkpt>
      <trkpt lat="49.36689" lon="-1.77435">
        <ele>1</ele>
        <time>2023-08-22T14:59:09.979+00:00</time>
      </trkpt>
      <trkpt lat="49.36691" lon="-1.77439">
        <ele>1</ele>
        <time>2023-08-22T14:59:13.986+00:00</time>
      </trkpt>
      <trkpt lat="49.36692" lon="-1.77446">
        <time>2023-08-22T14:59:17.992+00:00</time>
      </trkpt>
      <trkpt lat="49.36692" lon="-1.77453">
        <time>2023-08-22T14:59:22.496+00:00</time>
      </trkpt>
      <trkpt lat="49.36693" lon="-1.77458">
        <time>2023-08-22T14:59:26.499+00:00</time>
      </trkpt>
      <trkpt lat="49.36695" lon="-1.77463">
        <ele>1</ele>
        <time>2023-08-22T14:59:30.503+00:00</time>
      </trkpt>
      <trkpt lat="49.36697" lon="-1.77468">
        <ele>1</ele>
        <time>2023-08-22T14:59:35.009+00:00</time>
      </trkpt>
      <trkpt lat="49.36698" lon="-1.77475">
        <ele>1</ele>
        <time>2023-08-22T14:59:39.012+00:00</time>
      </trkpt>
      <trkpt lat="49.36699" lon="-1.77481">
        <ele>1</ele>
        <time>2023-08-22T14:59:43.015+00:00</time>
      </trkpt>
      <trkpt lat="49.36703" lon="-1.77486">
        <ele>1</ele>
        <time>2023-08-22T14:59:47.519+00:00</time>
      </trkpt>
      <trkpt lat="49.36707" lon="-1.77487">
        <ele>1</ele>
        <time>2023-08-22T14:59:52.317+00:00</time>
      </trkpt>
      <trkpt lat="49.3671" lon="-1.7749">
        <ele>1</ele>
        <time>2023-08-22T14:59:56.495+00:00</time>
      </trkpt>
      <trkpt lat="49.36715" lon="-1.77493">
        <ele>1</ele>
        <time>2023-08-22T15:00:01.170+00:00</time>
      </trkpt>
      <trkpt lat="49.36718" lon="-1.77495">
        <ele>1</ele>
        <time>2023-08-22T15:00:05.364+00:00</time>
      </trkpt>
      <trkpt lat="49.36719" lon="-1.77499">
        <ele>1</ele>
        <time>2023-08-22T15:00:09.500+00:00</time>
      </trkpt>
      <trkpt lat="49.36718" lon="-1.775">
        <ele>1</ele>
        <time>2023-08-22T15:00:14.156+00:00</time>
      </trkpt>
      <trkpt lat="49.36718" lon="-1.77497">
        <ele>1</ele>
        <time>2023-08-22T15:00:18.791+00:00</time>
      </trkpt>
      <trkpt lat="49.36719" lon="-1.77484">
        <ele>1</ele>
        <time>2023-08-22T15:00:23.278+00:00</time>
      </trkpt>
      <trkpt lat="49.36722" lon="-1.77475">
        <ele>1</ele>
        <time>2023-08-22T15:00:27.340+00:00</time>
      </trkpt>
      <trkpt lat="49.36725" lon="-1.77468">
        <ele>1</ele>
        <time>2023-08-22T15:00:31.972+00:00</time>
      </trkpt>
      <trkpt lat="49.3673" lon="-1.77467">
        <ele>1.1</ele>
        <time>2023-08-22T15:00:36.098+00:00</time>
      </trkpt>
      <trkpt lat="49.36736" lon="-1.77465">
        <ele>1.1</ele>
        <time>2023-08-22T15:00:40.243+00:00</time>
      </trkpt>
      <trkpt lat="49.36741" lon="-1.77463">
        <ele>1.2</ele>
        <time>2023-08-22T15:00:44.133+00:00</time>
      </trkpt>
      <trkpt lat="49.36746" lon="-1.77458">
        <ele>1.4</ele>
        <time>2023-08-22T15:00:48.327+00:00</time>
      </trkpt>
      <trkpt lat="49.36751" lon="-1.77455">
        <ele>1.6</ele>
        <time>2023-08-22T15:00:52.262+00:00</time>
      </trkpt>
      <trkpt lat="49.36755" lon="-1.77451">
        <ele>1.8</ele>
        <time>2023-08-22T15:00:56.335+00:00</time>
      </trkpt>
      <trkpt lat="49.36756" lon="-1.77446">
        <ele>1.9</ele>
        <time>2023-08-22T15:01:00.408+00:00</time>
      </trkpt>
      <trkpt lat="49.36761" lon="-1.77442">
        <ele>2</ele>
        <time>2023-08-22T15:01:04.983+00:00</time>
      </trkpt>
      <trkpt lat="49.36767" lon="-1.77439">
        <ele>2</ele>
        <time>2023-08-22T15:01:08.981+00:00</time>
      </trkpt>
      <trkpt lat="49.36773" lon="-1.77434">
        <ele>2</ele>
        <time>2023-08-22T15:01:13.662+00:00</time>
      </trkpt>
      <trkpt lat="49.36772" lon="-1.77436">
        <ele>2</ele>
        <time>2023-08-22T15:01:17.705+00:00</time>
      </trkpt>
      <trkpt lat="49.36768" lon="-1.77431">
        <ele>2</ele>
        <time>2023-08-22T15:01:22.133+00:00</time>
      </trkpt>
      <trkpt lat="49.36781" lon="-1.77457">
        <ele>2.1</ele>
        <time>2023-08-22T15:01:26.682+00:00</time>
      </trkpt>
      <trkpt lat="49.36783" lon="-1.77468">
        <ele>2</ele>
        <time>2023-08-22T15:01:31.349+00:00</time>
      </trkpt>
      <trkpt lat="49.36786" lon="-1.77477">
        <ele>2</ele>
        <time>2023-08-22T15:01:35.804+00:00</time>
      </trkpt>
      <trkpt lat="49.36786" lon="-1.77487">
        <ele>2</ele>
        <time>2023-08-22T15:01:40.326+00:00</time>
      </trkpt>
      <trkpt lat="49.36787" lon="-1.77496">
        <ele>2</ele>
        <time>2023-08-22T15:01:45.038+00:00</time>
      </trkpt>
      <trkpt lat="49.36788" lon="-1.77505">
        <ele>1.9</ele>
        <time>2023-08-22T15:01:48.944+00:00</time>
      </trkpt>
      <trkpt lat="49.36787" lon="-1.77515">
        <ele>1.6</ele>
        <time>2023-08-22T15:01:53.375+00:00</time>
      </trkpt>
      <trkpt lat="49.36784" lon="-1.77518">
        <ele>1.5</ele>
        <time>2023-08-22T15:01:57.981+00:00</time>
      </trkpt>
      <trkpt lat="49.3678" lon="-1.77521">
        <ele>1.3</ele>
        <time>2023-08-22T15:02:01.876+00:00</time>
      </trkpt>
      <trkpt lat="49.36776" lon="-1.77529">
        <ele>1</ele>
        <time>2023-08-22T15:02:06.385+00:00</time>
      </trkpt>
      <trkpt lat="49.36783" lon="-1.77547">
        <ele>1.1</ele>
        <time>2023-08-22T15:02:10.335+00:00</time>
      </trkpt>
      <trkpt lat="49.36783" lon="-1.77557">
        <ele>1</ele>
        <time>2023-08-22T15:02:14.981+00:00</time>
      </trkpt>
      <trkpt lat="49.36783" lon="-1.77566">
        <ele>1</ele>
        <time>2023-08-22T15:02:19.513+00:00</time>
      </trkpt>
      <trkpt lat="49.36784" lon="-1.77574">
        <ele>1</ele>
        <time>2023-08-22T15:02:23.581+00:00</time>
      </trkpt>
      <trkpt lat="49.36783" lon="-1.77578">
        <ele>1</ele>
        <time>2023-08-22T15:02:28.128+00:00</time>
      </trkpt>
      <trkpt lat="49.36781" lon="-1.77583">
        <ele>1</ele>
        <time>2023-08-22T15:02:32.777+00:00</time>
      </trkpt>
      <trkpt lat="49.36782" lon="-1.77594">
        <ele>1</ele>
        <time>2023-08-22T15:02:37.326+00:00</time>
      </trkpt>
      <trkpt lat="49.36784" lon="-1.77602">
        <ele>1</ele>
        <time>2023-08-22T15:02:41.395+00:00</time>
      </trkpt>
      <trkpt lat="49.36788" lon="-1.7762">
        <ele>1</ele>
        <time>2023-08-22T15:02:58.150+00:00</time>
      </trkpt>
      <trkpt lat="49.36792" lon="-1.77623">
        <ele>1</ele>
        <time>2023-08-22T15:03:02.099+00:00</time>
      </trkpt>
      <trkpt lat="49.36796" lon="-1.77627">
        <ele>1</ele>
        <time>2023-08-22T15:03:06.746+00:00</time>
      </trkpt>
      <trkpt lat="49.36797" lon="-1.77631">
        <ele>1</ele>
        <time>2023-08-22T15:03:10.577+00:00</time>
      </trkpt>
      <trkpt lat="49.36796" lon="-1.77639">
        <ele>1</ele>
        <time>2023-08-22T15:03:15.246+00:00</time>
      </trkpt>
      <trkpt lat="49.36792" lon="-1.77649">
        <ele>1</ele>
        <time>2023-08-22T15:03:19.318+00:00</time>
      </trkpt>
      <trkpt lat="49.36792" lon="-1.77658">
        <ele>1</ele>
        <time>2023-08-22T15:03:24.708+00:00</time>
      </trkpt>
      <trkpt lat="49.36796" lon="-1.77669">
        <ele>1</ele>
        <time>2023-08-22T15:03:29.144+00:00</time>
      </trkpt>
      <trkpt lat="49.368" lon="-1.77679">
        <ele>1</ele>
        <time>2023-08-22T15:03:33.305+00:00</time>
      </trkpt>
      <trkpt lat="49.36802" lon="-1.77688">
        <ele>1</ele>
        <time>2023-08-22T15:03:37.626+00:00</time>
      </trkpt>
      <trkpt lat="49.36802" lon="-1.77695">
        <time>2023-08-22T15:03:42.304+00:00</time>
      </trkpt>
      <trkpt lat="49.36804" lon="-1.777">
        <time>2023-08-22T15:03:46.803+00:00</time>
      </trkpt>
      <trkpt lat="49.36808" lon="-1.77701">
        <time>2023-08-22T15:03:51.320+00:00</time>
      </trkpt>
      <trkpt lat="49.36809" lon="-1.77706">
        <time>2023-08-22T15:03:55.299+00:00</time>
      </trkpt>
      <trkpt lat="49.36812" lon="-1.7771">
        <time>2023-08-22T15:03:59.783+00:00</time>
      </trkpt>
      <trkpt lat="49.36815" lon="-1.77713">
        <time>2023-08-22T15:04:03.981+00:00</time>
      </trkpt>
      <trkpt lat="49.36818" lon="-1.77718">
        <time>2023-08-22T15:04:08.186+00:00</time>
      </trkpt>
      <trkpt lat="49.36819" lon="-1.77726">
        <time>2023-08-22T15:04:12.740+00:00</time>
      </trkpt>
      <trkpt lat="49.3682" lon="-1.77732">
        <time>2023-08-22T15:04:16.934+00:00</time>
      </trkpt>
      <trkpt lat="49.36822" lon="-1.77736">
        <time>2023-08-22T15:04:21.101+00:00</time>
      </trkpt>
      <trkpt lat="49.36825" lon="-1.7774">
        <time>2023-08-22T15:04:25.125+00:00</time>
      </trkpt>
      <trkpt lat="49.36828" lon="-1.77743">
        <time>2023-08-22T15:04:29.791+00:00</time>
      </trkpt>
      <trkpt lat="49.36831" lon="-1.77747">
        <time>2023-08-22T15:04:33.895+00:00</time>
      </trkpt>
      <trkpt lat="49.36834" lon="-1.77749">
        <ele>1</ele>
        <time>2023-08-22T15:04:38.390+00:00</time>
      </trkpt>
      <trkpt lat="49.36837" lon="-1.77751">
        <time>2023-08-22T15:04:42.584+00:00</time>
      </trkpt>
      <trkpt lat="49.36839" lon="-1.7775">
        <time>2023-08-22T15:04:46.539+00:00</time>
      </trkpt>
      <trkpt lat="49.36842" lon="-1.77753">
        <time>2023-08-22T15:04:51.333+00:00</time>
      </trkpt>
      <trkpt lat="49.36845" lon="-1.77757">
        <time>2023-08-22T15:04:55.407+00:00</time>
      </trkpt>
      <trkpt lat="49.36845" lon="-1.77761">
        <time>2023-08-22T15:04:59.940+00:00</time>
      </trkpt>
      <trkpt lat="49.36844" lon="-1.77766">
        <time>2023-08-22T15:05:04.611+00:00</time>
      </trkpt>
      <trkpt lat="49.36845" lon="-1.77771">
        <time>2023-08-22T15:05:08.682+00:00</time>
      </trkpt>
      <trkpt lat="49.36845" lon="-1.7778">
        <time>2023-08-22T15:05:13.352+00:00</time>
      </trkpt>
      <trkpt lat="49.36847" lon="-1.77786">
        <time>2023-08-22T15:05:17.981+00:00</time>
      </trkpt>
      <trkpt lat="49.36849" lon="-1.77793">
        <time>2023-08-22T15:05:21.963+00:00</time>
      </trkpt>
      <trkpt lat="49.36849" lon="-1.778">
        <time>2023-08-22T15:05:26.593+00:00</time>
      </trkpt>
      <trkpt lat="49.36851" lon="-1.77806">
        <time>2023-08-22T15:05:31.142+00:00</time>
      </trkpt>
      <trkpt lat="49.36852" lon="-1.77812">
        <time>2023-08-22T15:05:35.334+00:00</time>
      </trkpt>
      <trkpt lat="49.36856" lon="-1.77816">
        <time>2023-08-22T15:05:39.885+00:00</time>
      </trkpt>
      <trkpt lat="49.3686" lon="-1.77819">
        <time>2023-08-22T15:05:43.958+00:00</time>
      </trkpt>
      <trkpt lat="49.36864" lon="-1.77825">
        <time>2023-08-22T15:05:48.746+00:00</time>
      </trkpt>
      <trkpt lat="49.36867" lon="-1.77831">
        <time>2023-08-22T15:05:52.695+00:00</time>
      </trkpt>
      <trkpt lat="49.3687" lon="-1.77836">
        <time>2023-08-22T15:05:57.364+00:00</time>
      </trkpt>
      <trkpt lat="49.36872" lon="-1.77839">
        <time>2023-08-22T15:06:01.552+00:00</time>
      </trkpt>
      <trkpt lat="49.36874" lon="-1.77841">
        <time>2023-08-22T15:06:05.742+00:00</time>
      </trkpt>
      <trkpt lat="49.36877" lon="-1.77845">
        <time>2023-08-22T15:06:09.934+00:00</time>
      </trkpt>
      <trkpt lat="49.36878" lon="-1.7785">
        <time>2023-08-22T15:06:13.981+00:00</time>
      </trkpt>
      <trkpt lat="49.3688" lon="-1.77855">
        <time>2023-08-22T15:06:18.464+00:00</time>
      </trkpt>
      <trkpt lat="49.36883" lon="-1.7786">
        <time>2023-08-22T15:06:22.513+00:00</time>
      </trkpt>
      <trkpt lat="49.36887" lon="-1.77863">
        <time>2023-08-22T15:06:26.981+00:00</time>
      </trkpt>
      <trkpt lat="49.36889" lon="-1.77868">
        <time>2023-08-22T15:06:31.554+00:00</time>
      </trkpt>
      <trkpt lat="49.36892" lon="-1.77873">
        <time>2023-08-22T15:06:35.981+00:00</time>
      </trkpt>
      <trkpt lat="49.36895" lon="-1.77876">
        <time>2023-08-22T15:06:40.175+00:00</time>
      </trkpt>
      <trkpt lat="49.36898" lon="-1.77882">
        <time>2023-08-22T15:06:44.364+00:00</time>
      </trkpt>
      <trkpt lat="49.36901" lon="-1.77889">
        <time>2023-08-22T15:06:49.138+00:00</time>
      </trkpt>
      <trkpt lat="49.36902" lon="-1.77896">
        <time>2023-08-22T15:06:53.102+00:00</time>
      </trkpt>
      <trkpt lat="49.36902" lon="-1.77902">
        <time>2023-08-22T15:06:57.173+00:00</time>
      </trkpt>
      <trkpt lat="49.36902" lon="-1.77908">
        <time>2023-08-22T15:07:01.604+00:00</time>
      </trkpt>
      <trkpt lat="49.36902" lon="-1.77914">
        <time>2023-08-22T15:07:05.794+00:00</time>
      </trkpt>
      <trkpt lat="49.36902" lon="-1.7792">
        <time>2023-08-22T15:07:09.801+00:00</time>
      </trkpt>
      <trkpt lat="49.36902" lon="-1.77927">
        <time>2023-08-22T15:07:14.296+00:00</time>
      </trkpt>
      <trkpt lat="49.36902" lon="-1.77933">
        <time>2023-08-22T15:07:18.329+00:00</time>
      </trkpt>
      <trkpt lat="49.36902" lon="-1.77939">
        <time>2023-08-22T15:07:23.360+00:00</time>
      </trkpt>
      <trkpt lat="49.369" lon="-1.7795">
        <time>2023-08-22T15:08:56.743+00:00</time>
      </trkpt>
      <trkpt lat="49.36901" lon="-1.7795">
        <time>2023-08-22T15:09:01.261+00:00</time>
      </trkpt>
      <trkpt lat="49.36903" lon="-1.7795">
        <time>2023-08-22T15:09:05.375+00:00</time>
      </trkpt>
      <trkpt lat="49.36903" lon="-1.77953">
        <time>2023-08-22T15:09:09.488+00:00</time>
      </trkpt>
      <trkpt lat="49.36901" lon="-1.77963">
        <time>2023-08-22T15:09:14.102+00:00</time>
      </trkpt>
      <trkpt lat="49.36899" lon="-1.77971">
        <time>2023-08-22T15:09:18.313+00:00</time>
      </trkpt>
      <trkpt lat="49.36898" lon="-1.77976">
        <time>2023-08-22T15:09:22.342+00:00</time>
      </trkpt>
      <trkpt lat="49.36898" lon="-1.7798">
        <time>2023-08-22T15:09:26.350+00:00</time>
      </trkpt>
      <trkpt lat="49.36896" lon="-1.77987">
        <time>2023-08-22T15:09:30.863+00:00</time>
      </trkpt>
      <trkpt lat="49.36893" lon="-1.77995">
        <time>2023-08-22T15:09:34.965+00:00</time>
      </trkpt>
      <trkpt lat="49.36891" lon="-1.78003">
        <time>2023-08-22T15:09:39.474+00:00</time>
      </trkpt>
      <trkpt lat="49.36889" lon="-1.78009">
        <time>2023-08-22T15:09:43.983+00:00</time>
      </trkpt>
      <trkpt lat="49.36888" lon="-1.78016">
        <time>2023-08-22T15:09:48.490+00:00</time>
      </trkpt>
      <trkpt lat="49.36888" lon="-1.78023">
        <time>2023-08-22T15:09:53.002+00:00</time>
      </trkpt>
      <trkpt lat="49.36888" lon="-1.78028">
        <time>2023-08-22T15:09:57.104+00:00</time>
      </trkpt>
      <trkpt lat="49.36888" lon="-1.78033">
        <time>2023-08-22T15:10:01.610+00:00</time>
      </trkpt>
      <trkpt lat="49.36888" lon="-1.7804">
        <time>2023-08-22T15:10:05.631+00:00</time>
      </trkpt>
      <trkpt lat="49.36887" lon="-1.78047">
        <time>2023-08-22T15:10:09.636+00:00</time>
      </trkpt>
      <trkpt lat="49.36884" lon="-1.78054">
        <time>2023-08-22T15:10:14.141+00:00</time>
      </trkpt>
      <trkpt lat="49.36881" lon="-1.78059">
        <time>2023-08-22T15:10:18.245+00:00</time>
      </trkpt>
      <trkpt lat="49.36879" lon="-1.78062">
        <time>2023-08-22T15:10:22.352+00:00</time>
      </trkpt>
      <trkpt lat="49.36877" lon="-1.7807">
        <time>2023-08-22T15:10:26.860+00:00</time>
      </trkpt>
      <trkpt lat="49.36876" lon="-1.78078">
        <time>2023-08-22T15:10:31.366+00:00</time>
      </trkpt>
      <trkpt lat="49.36875" lon="-1.78085">
        <time>2023-08-22T15:10:36.374+00:00</time>
      </trkpt>
      <trkpt lat="49.36877" lon="-1.78091">
        <time>2023-08-22T15:10:40.478+00:00</time>
      </trkpt>
      <trkpt lat="49.36877" lon="-1.78098">
        <time>2023-08-22T15:10:44.982+00:00</time>
      </trkpt>
      <trkpt lat="49.36875" lon="-1.78105">
        <time>2023-08-22T15:10:49.487+00:00</time>
      </trkpt>
      <trkpt lat="49.36874" lon="-1.78111">
        <time>2023-08-22T15:10:53.493+00:00</time>
      </trkpt>
      <trkpt lat="49.36874" lon="-1.7812">
        <time>2023-08-22T15:10:58.099+00:00</time>
      </trkpt>
      <trkpt lat="49.36873" lon="-1.78125">
        <time>2023-08-22T15:11:02.160+00:00</time>
      </trkpt>
      <trkpt lat="49.36872" lon="-1.7813">
        <time>2023-08-22T15:11:06.322+00:00</time>
      </trkpt>
      <trkpt lat="49.36875" lon="-1.7813">
        <time>2023-08-22T15:11:10.334+00:00</time>
      </trkpt>
      <trkpt lat="49.36875" lon="-1.78135">
        <time>2023-08-22T15:11:14.852+00:00</time>
      </trkpt>
      <trkpt lat="49.36876" lon="-1.7814">
        <time>2023-08-22T15:11:19.368+00:00</time>
      </trkpt>
      <trkpt lat="49.36874" lon="-1.7814">
        <time>2023-08-22T15:11:24.384+00:00</time>
      </trkpt>
      <trkpt lat="49.36873" lon="-1.78146">
        <time>2023-08-22T15:11:28.917+00:00</time>
      </trkpt>
      <trkpt lat="49.36873" lon="-1.78153">
        <time>2023-08-22T15:11:32.931+00:00</time>
      </trkpt>
      <trkpt lat="49.36872" lon="-1.78162">
        <time>2023-08-22T15:11:37.445+00:00</time>
      </trkpt>
      <trkpt lat="49.3687" lon="-1.78168">
        <time>2023-08-22T15:11:41.957+00:00</time>
      </trkpt>
      <trkpt lat="49.36869" lon="-1.78175">
        <time>2023-08-22T15:11:46.469+00:00</time>
      </trkpt>
      <trkpt lat="49.36868" lon="-1.78184">
        <time>2023-08-22T15:11:50.981+00:00</time>
      </trkpt>
      <trkpt lat="49.36868" lon="-1.7819">
        <time>2023-08-22T15:11:54.992+00:00</time>
      </trkpt>
      <trkpt lat="49.36867" lon="-1.78196">
        <time>2023-08-22T15:11:59.503+00:00</time>
      </trkpt>
      <trkpt lat="49.36865" lon="-1.78204">
        <time>2023-08-22T15:12:04.012+00:00</time>
      </trkpt>
      <trkpt lat="49.36863" lon="-1.78212">
        <time>2023-08-22T15:12:08.637+00:00</time>
      </trkpt>
      <trkpt lat="49.3686" lon="-1.78218">
        <time>2023-08-22T15:12:13.162+00:00</time>
      </trkpt>
      <trkpt lat="49.36857" lon="-1.78223">
        <time>2023-08-22T15:12:17.673+00:00</time>
      </trkpt>
      <trkpt lat="49.36855" lon="-1.78223">
        <time>2023-08-22T15:12:22.685+00:00</time>
      </trkpt>
      <trkpt lat="49.36856" lon="-1.78226">
        <time>2023-08-22T15:12:27.197+00:00</time>
      </trkpt>
      <trkpt lat="49.36855" lon="-1.78232">
        <time>2023-08-22T15:12:31.710+00:00</time>
      </trkpt>
      <trkpt lat="49.36854" lon="-1.78237">
        <time>2023-08-22T15:12:35.736+00:00</time>
      </trkpt>
      <trkpt lat="49.36853" lon="-1.78243">
        <time>2023-08-22T15:12:39.761+00:00</time>
      </trkpt>
      <trkpt lat="49.36853" lon="-1.78247">
        <time>2023-08-22T15:12:44.285+00:00</time>
      </trkpt>
      <trkpt lat="49.36853" lon="-1.78253">
        <time>2023-08-22T15:12:48.910+00:00</time>
      </trkpt>
      <trkpt lat="49.3685" lon="-1.78258">
        <time>2023-08-22T15:12:52.918+00:00</time>
      </trkpt>
      <trkpt lat="49.36846" lon="-1.78263">
        <time>2023-08-22T15:12:57.427+00:00</time>
      </trkpt>
      <trkpt lat="49.36844" lon="-1.7827">
        <time>2023-08-22T15:13:01.935+00:00</time>
      </trkpt>
      <trkpt lat="49.36842" lon="-1.78276">
        <time>2023-08-22T15:13:06.443+00:00</time>
      </trkpt>
      <trkpt lat="49.3684" lon="-1.78282">
        <time>2023-08-22T15:13:10.952+00:00</time>
      </trkpt>
      <trkpt lat="49.36837" lon="-1.78287">
        <time>2023-08-22T15:13:14.961+00:00</time>
      </trkpt>
      <trkpt lat="49.36835" lon="-1.78292">
        <time>2023-08-22T15:13:19.473+00:00</time>
      </trkpt>
      <trkpt lat="49.36833" lon="-1.78297">
        <time>2023-08-22T15:13:23.983+00:00</time>
      </trkpt>
      <trkpt lat="49.36832" lon="-1.78302">
        <time>2023-08-22T15:13:28.500+00:00</time>
      </trkpt>
      <trkpt lat="49.3683" lon="-1.78308">
        <time>2023-08-22T15:13:32.603+00:00</time>
      </trkpt>
      <trkpt lat="49.36829" lon="-1.78316">
        <time>2023-08-22T15:13:37.285+00:00</time>
      </trkpt>
      <trkpt lat="49.36827" lon="-1.78322">
        <time>2023-08-22T15:13:41.225+00:00</time>
      </trkpt>
      <trkpt lat="49.36827" lon="-1.78328">
        <time>2023-08-22T15:13:45.543+00:00</time>
      </trkpt>
      <trkpt lat="49.36827" lon="-1.78333">
        <time>2023-08-22T15:13:49.582+00:00</time>
      </trkpt>
      <trkpt lat="49.36826" lon="-1.78339">
        <time>2023-08-22T15:13:54.172+00:00</time>
      </trkpt>
      <trkpt lat="49.36823" lon="-1.78345">
        <time>2023-08-22T15:13:58.499+00:00</time>
      </trkpt>
      <trkpt lat="49.36822" lon="-1.78351">
        <time>2023-08-22T15:14:02.577+00:00</time>
      </trkpt>
      <trkpt lat="49.36821" lon="-1.78358">
        <time>2023-08-22T15:14:06.654+00:00</time>
      </trkpt>
      <trkpt lat="49.36819" lon="-1.78365">
        <time>2023-08-22T15:14:11.211+00:00</time>
      </trkpt>
      <trkpt lat="49.36817" lon="-1.78371">
        <time>2023-08-22T15:14:15.748+00:00</time>
      </trkpt>
      <trkpt lat="49.36815" lon="-1.78376">
        <time>2023-08-22T15:14:19.686+00:00</time>
      </trkpt>
      <trkpt lat="49.36811" lon="-1.7838">
        <time>2023-08-22T15:14:24.202+00:00</time>
      </trkpt>
      <trkpt lat="49.3681" lon="-1.78386">
        <time>2023-08-22T15:14:28.716+00:00</time>
      </trkpt>
      <trkpt lat="49.36811" lon="-1.78393">
        <time>2023-08-22T15:14:32.791+00:00</time>
      </trkpt>
      <trkpt lat="49.36811" lon="-1.784">
        <time>2023-08-22T15:14:37.555+00:00</time>
      </trkpt>
      <trkpt lat="49.3681" lon="-1.78403">
        <time>2023-08-22T15:14:42.066+00:00</time>
      </trkpt>
      <trkpt lat="49.36807" lon="-1.78411">
        <time>2023-08-22T15:14:46.174+00:00</time>
      </trkpt>
      <trkpt lat="49.36806" lon="-1.78419">
        <time>2023-08-22T15:14:50.682+00:00</time>
      </trkpt>
      <trkpt lat="49.36803" lon="-1.78424">
        <time>2023-08-22T15:14:55.193+00:00</time>
      </trkpt>
      <trkpt lat="49.36802" lon="-1.78433">
        <time>2023-08-22T15:15:00.306+00:00</time>
      </trkpt>
      <trkpt lat="49.368" lon="-1.78441">
        <time>2023-08-22T15:15:04.316+00:00</time>
      </trkpt>
      <trkpt lat="49.36799" lon="-1.78448">
        <time>2023-08-22T15:15:08.829+00:00</time>
      </trkpt>
      <trkpt lat="49.36798" lon="-1.78454">
        <time>2023-08-22T15:15:13.341+00:00</time>
      </trkpt>
      <trkpt lat="49.36796" lon="-1.7846">
        <time>2023-08-22T15:15:17.854+00:00</time>
      </trkpt>
      <trkpt lat="49.36794" lon="-1.78465">
        <time>2023-08-22T15:15:21.864+00:00</time>
      </trkpt>
      <trkpt lat="49.36794" lon="-1.7847">
        <time>2023-08-22T15:15:25.874+00:00</time>
      </trkpt>
      <trkpt lat="49.36793" lon="-1.78476">
        <time>2023-08-22T15:15:30.585+00:00</time>
      </trkpt>
      <trkpt lat="49.36793" lon="-1.7848">
        <time>2023-08-22T15:15:34.594+00:00</time>
      </trkpt>
      <trkpt lat="49.36792" lon="-1.78487">
        <time>2023-08-22T15:15:39.139+00:00</time>
      </trkpt>
      <trkpt lat="49.36792" lon="-1.78494">
        <time>2023-08-22T15:15:43.415+00:00</time>
      </trkpt>
      <trkpt lat="49.36792" lon="-1.78501">
        <time>2023-08-22T15:15:47.425+00:00</time>
      </trkpt>
      <trkpt lat="49.36792" lon="-1.78507">
        <time>2023-08-22T15:15:51.534+00:00</time>
      </trkpt>
      <trkpt lat="49.36793" lon="-1.78512">
        <time>2023-08-22T15:15:55.545+00:00</time>
      </trkpt>
      <trkpt lat="49.36791" lon="-1.78519">
        <time>2023-08-22T15:16:00.056+00:00</time>
      </trkpt>
      <trkpt lat="49.3679" lon="-1.78527">
        <time>2023-08-22T15:16:04.064+00:00</time>
      </trkpt>
      <trkpt lat="49.36791" lon="-1.78535">
        <time>2023-08-22T15:16:08.575+00:00</time>
      </trkpt>
      <trkpt lat="49.3679" lon="-1.78544">
        <time>2023-08-22T15:16:13.186+00:00</time>
      </trkpt>
      <trkpt lat="49.36789" lon="-1.7855">
        <time>2023-08-22T15:16:17.698+00:00</time>
      </trkpt>
      <trkpt lat="49.3679" lon="-1.78555">
        <time>2023-08-22T15:16:21.708+00:00</time>
      </trkpt>
      <trkpt lat="49.3679" lon="-1.78562">
        <time>2023-08-22T15:16:26.320+00:00</time>
      </trkpt>
      <trkpt lat="49.3679" lon="-1.78569">
        <time>2023-08-22T15:16:30.932+00:00</time>
      </trkpt>
      <trkpt lat="49.36789" lon="-1.78575">
        <time>2023-08-22T15:16:35.518+00:00</time>
      </trkpt>
      <trkpt lat="49.36787" lon="-1.78579">
        <time>2023-08-22T15:16:39.152+00:00</time>
      </trkpt>
      <trkpt lat="49.36787" lon="-1.7858">
        <time>2023-08-22T15:16:43.668+00:00</time>
      </trkpt>
      <trkpt lat="49.36788" lon="-1.7858">
        <time>2023-08-22T15:16:48.185+00:00</time>
      </trkpt>
      <trkpt lat="49.36788" lon="-1.78589">
        <time>2023-08-22T15:16:52.801+00:00</time>
      </trkpt>
      <trkpt lat="49.36788" lon="-1.78597">
        <time>2023-08-22T15:16:57.314+00:00</time>
      </trkpt>
      <trkpt lat="49.36789" lon="-1.78604">
        <time>2023-08-22T15:17:01.526+00:00</time>
      </trkpt>
      <trkpt lat="49.36789" lon="-1.78613">
        <time>2023-08-22T15:17:06.553+00:00</time>
      </trkpt>
      <trkpt lat="49.36791" lon="-1.78619">
        <time>2023-08-22T15:17:10.678+00:00</time>
      </trkpt>
      <trkpt lat="49.36792" lon="-1.78624">
        <time>2023-08-22T15:17:14.685+00:00</time>
      </trkpt>
      <trkpt lat="49.36793" lon="-1.78633">
        <time>2023-08-22T15:17:18.689+00:00</time>
      </trkpt>
      <trkpt lat="49.36793" lon="-1.78641">
        <time>2023-08-22T15:17:22.949+00:00</time>
      </trkpt>
      <trkpt lat="49.36794" lon="-1.78648">
        <time>2023-08-22T15:17:27.548+00:00</time>
      </trkpt>
      <trkpt lat="49.36797" lon="-1.78654">
        <time>2023-08-22T15:17:32.306+00:00</time>
      </trkpt>
      <trkpt lat="49.36801" lon="-1.78657">
        <time>2023-08-22T15:17:36.086+00:00</time>
      </trkpt>
      <trkpt lat="49.36806" lon="-1.78661">
        <ele>1</ele>
        <time>2023-08-22T15:17:40.105+00:00</time>
      </trkpt>
      <trkpt lat="49.36809" lon="-1.78665">
        <ele>1</ele>
        <time>2023-08-22T15:17:44.444+00:00</time>
      </trkpt>
      <trkpt lat="49.36811" lon="-1.78669">
        <ele>1</ele>
        <time>2023-08-22T15:17:48.443+00:00</time>
      </trkpt>
      <trkpt lat="49.36806" lon="-1.78671">
        <ele>1</ele>
        <time>2023-08-22T15:18:06.368+00:00</time>
      </trkpt>
      <trkpt lat="49.36805" lon="-1.78674">
        <time>2023-08-22T15:18:11.674+00:00</time>
      </trkpt>
      <trkpt lat="49.36804" lon="-1.78678">
        <time>2023-08-22T15:18:16.137+00:00</time>
      </trkpt>
      <trkpt lat="49.36805" lon="-1.78681">
        <time>2023-08-22T15:18:20.332+00:00</time>
      </trkpt>
      <trkpt lat="49.36804" lon="-1.78686">
        <time>2023-08-22T15:18:24.348+00:00</time>
      </trkpt>
      <trkpt lat="49.36797" lon="-1.7869">
        <time>2023-08-22T15:18:41.995+00:00</time>
      </trkpt>
      <trkpt lat="49.36795" lon="-1.78692">
        <time>2023-08-22T15:18:46.707+00:00</time>
      </trkpt>
      <trkpt lat="49.36793" lon="-1.78695">
        <ele>1</ele>
        <time>2023-08-22T15:18:51.216+00:00</time>
      </trkpt>
      <trkpt lat="49.36792" lon="-1.78705">
        <ele>1</ele>
        <time>2023-08-22T15:18:55.224+00:00</time>
      </trkpt>
      <trkpt lat="49.36792" lon="-1.78711">
        <ele>1</ele>
        <time>2023-08-22T15:18:59.229+00:00</time>
      </trkpt>
      <trkpt lat="49.36791" lon="-1.78718">
        <ele>1</ele>
        <time>2023-08-22T15:19:03.736+00:00</time>
      </trkpt>
      <trkpt lat="49.36794" lon="-1.78724">
        <ele>1</ele>
        <time>2023-08-22T15:19:08.242+00:00</time>
      </trkpt>
      <trkpt lat="49.36795" lon="-1.78728">
        <ele>1</ele>
        <time>2023-08-22T15:19:12.766+00:00</time>
      </trkpt>
      <trkpt lat="49.36795" lon="-1.78735">
        <ele>1</ele>
        <time>2023-08-22T15:19:16.874+00:00</time>
      </trkpt>
      <trkpt lat="49.36792" lon="-1.7874">
        <ele>1</ele>
        <time>2023-08-22T15:19:20.883+00:00</time>
      </trkpt>
      <trkpt lat="49.3679" lon="-1.78744">
        <ele>1</ele>
        <time>2023-08-22T15:19:25.406+00:00</time>
      </trkpt>
      <trkpt lat="49.36788" lon="-1.78748">
        <ele>1</ele>
        <time>2023-08-22T15:19:29.413+00:00</time>
      </trkpt>
      <trkpt lat="49.36788" lon="-1.78754">
        <ele>1</ele>
        <time>2023-08-22T15:19:33.423+00:00</time>
      </trkpt>
      <trkpt lat="49.36787" lon="-1.78759">
        <ele>1</ele>
        <time>2023-08-22T15:19:37.933+00:00</time>
      </trkpt>
      <trkpt lat="49.36786" lon="-1.78765">
        <ele>1</ele>
        <time>2023-08-22T15:19:41.941+00:00</time>
      </trkpt>
      <trkpt lat="49.36785" lon="-1.78772">
        <ele>1</ele>
        <time>2023-08-22T15:19:45.964+00:00</time>
      </trkpt>
      <trkpt lat="49.36784" lon="-1.78779">
        <time>2023-08-22T15:19:49.971+00:00</time>
      </trkpt>
      <trkpt lat="49.36783" lon="-1.78786">
        <time>2023-08-22T15:19:54.495+00:00</time>
      </trkpt>
      <trkpt lat="49.3678" lon="-1.7879">
        <time>2023-08-22T15:19:59.004+00:00</time>
      </trkpt>
      <trkpt lat="49.3678" lon="-1.78794">
        <time>2023-08-22T15:20:03.529+00:00</time>
      </trkpt>
      <trkpt lat="49.36781" lon="-1.78798">
        <time>2023-08-22T15:20:08.041+00:00</time>
      </trkpt>
      <trkpt lat="49.36779" lon="-1.78806">
        <time>2023-08-22T15:20:12.552+00:00</time>
      </trkpt>
      <trkpt lat="49.36778" lon="-1.7881">
        <time>2023-08-22T15:20:16.562+00:00</time>
      </trkpt>
      <trkpt lat="49.36777" lon="-1.78816">
        <time>2023-08-22T15:20:21.077+00:00</time>
      </trkpt>
      <trkpt lat="49.36773" lon="-1.78823">
        <time>2023-08-22T15:20:25.285+00:00</time>
      </trkpt>
      <trkpt lat="49.36771" lon="-1.78829">
        <time>2023-08-22T15:20:29.895+00:00</time>
      </trkpt>
      <trkpt lat="49.36769" lon="-1.78835">
        <time>2023-08-22T15:20:34.027+00:00</time>
      </trkpt>
      <trkpt lat="49.36766" lon="-1.78842">
        <time>2023-08-22T15:20:38.607+00:00</time>
      </trkpt>
      <trkpt lat="49.36765" lon="-1.78847">
        <time>2023-08-22T15:20:42.615+00:00</time>
      </trkpt>
      <trkpt lat="49.36764" lon="-1.78851">
        <time>2023-08-22T15:20:46.623+00:00</time>
      </trkpt>
      <trkpt lat="49.36762" lon="-1.78857">
        <time>2023-08-22T15:20:51.132+00:00</time>
      </trkpt>
      <trkpt lat="49.3676" lon="-1.78862">
        <time>2023-08-22T15:20:55.641+00:00</time>
      </trkpt>
      <trkpt lat="49.36759" lon="-1.78867">
        <time>2023-08-22T15:20:59.650+00:00</time>
      </trkpt>
      <trkpt lat="49.36759" lon="-1.78872">
        <time>2023-08-22T15:21:03.659+00:00</time>
      </trkpt>
      <trkpt lat="49.36757" lon="-1.78882">
        <time>2023-08-22T15:21:11.696+00:00</time>
      </trkpt>
      <trkpt lat="49.36757" lon="-1.78887">
        <time>2023-08-22T15:21:16.207+00:00</time>
      </trkpt>
      <trkpt lat="49.36757" lon="-1.7889">
        <ele>1</ele>
        <time>2023-08-22T15:21:20.217+00:00</time>
      </trkpt>
      <trkpt lat="49.36757" lon="-1.7889">
        <ele>1</ele>
        <time>2023-08-22T15:21:24.727+00:00</time>
      </trkpt>
      <trkpt lat="49.36757" lon="-1.78893">
        <ele>1</ele>
        <time>2023-08-22T15:21:28.745+00:00</time>
      </trkpt>
      <trkpt lat="49.36755" lon="-1.789">
        <ele>1</ele>
        <time>2023-08-22T15:21:33.254+00:00</time>
      </trkpt>
      <trkpt lat="49.36756" lon="-1.78909">
        <ele>1</ele>
        <time>2023-08-22T15:21:37.760+00:00</time>
      </trkpt>
      <trkpt lat="49.36756" lon="-1.78918">
        <ele>1</ele>
        <time>2023-08-22T15:21:41.802+00:00</time>
      </trkpt>
      <trkpt lat="49.36755" lon="-1.78924">
        <ele>1</ele>
        <time>2023-08-22T15:21:45.943+00:00</time>
      </trkpt>
      <trkpt lat="49.36752" lon="-1.7893">
        <ele>1</ele>
        <time>2023-08-22T15:21:55.474+00:00</time>
      </trkpt>
      <trkpt lat="49.36752" lon="-1.7893">
        <ele>1</ele>
        <time>2023-08-22T15:21:59.487+00:00</time>
      </trkpt>
      <trkpt lat="49.3675" lon="-1.78931">
        <ele>1</ele>
        <time>2023-08-22T15:22:04.001+00:00</time>
      </trkpt>
      <trkpt lat="49.36747" lon="-1.78936">
        <ele>1</ele>
        <time>2023-08-22T15:22:08.514+00:00</time>
      </trkpt>
      <trkpt lat="49.36745" lon="-1.78942">
        <ele>1</ele>
        <time>2023-08-22T15:22:12.624+00:00</time>
      </trkpt>
      <trkpt lat="49.36743" lon="-1.78945">
        <ele>1</ele>
        <time>2023-08-22T15:22:16.635+00:00</time>
      </trkpt>
      <trkpt lat="49.36745" lon="-1.78952">
        <ele>1</ele>
        <time>2023-08-22T15:22:21.147+00:00</time>
      </trkpt>
      <trkpt lat="49.36745" lon="-1.78958">
        <ele>1</ele>
        <time>2023-08-22T15:22:25.157+00:00</time>
      </trkpt>
      <trkpt lat="49.36744" lon="-1.78964">
        <ele>1</ele>
        <time>2023-08-22T15:22:29.669+00:00</time>
      </trkpt>
      <trkpt lat="49.36743" lon="-1.78979">
        <ele>1</ele>
        <time>2023-08-22T15:22:46.733+00:00</time>
      </trkpt>
      <trkpt lat="49.36744" lon="-1.78985">
        <ele>1</ele>
        <time>2023-08-22T15:22:50.860+00:00</time>
      </trkpt>
      <trkpt lat="49.36745" lon="-1.78992">
        <ele>1</ele>
        <time>2023-08-22T15:22:55.373+00:00</time>
      </trkpt>
      <trkpt lat="49.36745" lon="-1.78998">
        <ele>1</ele>
        <time>2023-08-22T15:22:59.900+00:00</time>
      </trkpt>
      <trkpt lat="49.36745" lon="-1.79005">
        <ele>1</ele>
        <time>2023-08-22T15:23:04.413+00:00</time>
      </trkpt>
      <trkpt lat="49.36744" lon="-1.79008">
        <ele>1</ele>
        <time>2023-08-22T15:23:08.425+00:00</time>
      </trkpt>
      <trkpt lat="49.36744" lon="-1.79009">
        <ele>1</ele>
        <time>2023-08-22T15:23:12.955+00:00</time>
      </trkpt>
      <trkpt lat="49.36744" lon="-1.79013">
        <ele>1</ele>
        <time>2023-08-22T15:23:17.470+00:00</time>
      </trkpt>
      <trkpt lat="49.36746" lon="-1.7902">
        <ele>1</ele>
        <time>2023-08-22T15:23:21.484+00:00</time>
      </trkpt>
      <trkpt lat="49.36748" lon="-1.79022">
        <ele>1</ele>
        <time>2023-08-22T15:23:25.596+00:00</time>
      </trkpt>
      <trkpt lat="49.36748" lon="-1.79024">
        <ele>1</ele>
        <time>2023-08-22T15:23:30.126+00:00</time>
      </trkpt>
      <trkpt lat="49.36748" lon="-1.79025">
        <ele>1</ele>
        <time>2023-08-22T15:23:34.641+00:00</time>
      </trkpt>
      <trkpt lat="49.36748" lon="-1.7903">
        <time>2023-08-22T15:23:39.155+00:00</time>
      </trkpt>
      <trkpt lat="49.36747" lon="-1.79037">
        <time>2023-08-22T15:23:43.167+00:00</time>
      </trkpt>
      <trkpt lat="49.36747" lon="-1.79041">
        <time>2023-08-22T15:23:47.677+00:00</time>
      </trkpt>
      <trkpt lat="49.36747" lon="-1.7904">
        <time>2023-08-22T15:23:52.706+00:00</time>
      </trkpt>
      <trkpt lat="49.36747" lon="-1.79041">
        <time>2023-08-22T15:23:57.219+00:00</time>
      </trkpt>
      <trkpt lat="49.36747" lon="-1.79045">
        <time>2023-08-22T15:24:01.730+00:00</time>
      </trkpt>
      <trkpt lat="49.36747" lon="-1.79049">
        <time>2023-08-22T15:24:06.242+00:00</time>
      </trkpt>
      <trkpt lat="49.36746" lon="-1.79056">
        <time>2023-08-22T15:24:10.753+00:00</time>
      </trkpt>
      <trkpt lat="49.36745" lon="-1.79062">
        <time>2023-08-22T15:24:14.864+00:00</time>
      </trkpt>
      <trkpt lat="49.36746" lon="-1.79067">
        <time>2023-08-22T15:24:19.376+00:00</time>
      </trkpt>
      <trkpt lat="49.36746" lon="-1.79071">
        <time>2023-08-22T15:24:24.387+00:00</time>
      </trkpt>
      <trkpt lat="49.36747" lon="-1.79077">
        <time>2023-08-22T15:24:28.397+00:00</time>
      </trkpt>
      <trkpt lat="49.36748" lon="-1.79083">
        <time>2023-08-22T15:24:32.908+00:00</time>
      </trkpt>
      <trkpt lat="49.36749" lon="-1.7909">
        <time>2023-08-22T15:24:37.521+00:00</time>
      </trkpt>
      <trkpt lat="49.3675" lon="-1.79096">
        <time>2023-08-22T15:24:41.561+00:00</time>
      </trkpt>
      <trkpt lat="49.36749" lon="-1.79102">
        <time>2023-08-22T15:24:45.569+00:00</time>
      </trkpt>
      <trkpt lat="49.3675" lon="-1.79107">
        <time>2023-08-22T15:24:50.079+00:00</time>
      </trkpt>
      <trkpt lat="49.36752" lon="-1.79113">
        <time>2023-08-22T15:24:54.588+00:00</time>
      </trkpt>
      <trkpt lat="49.36752" lon="-1.79117">
        <time>2023-08-22T15:24:58.598+00:00</time>
      </trkpt>
      <trkpt lat="49.36752" lon="-1.7912">
        <time>2023-08-22T15:25:02.608+00:00</time>
      </trkpt>
      <trkpt lat="49.36752" lon="-1.79125">
        <time>2023-08-22T15:25:07.120+00:00</time>
      </trkpt>
      <trkpt lat="49.36752" lon="-1.79129">
        <time>2023-08-22T15:25:11.129+00:00</time>
      </trkpt>
      <trkpt lat="49.36753" lon="-1.79135">
        <time>2023-08-22T15:25:15.640+00:00</time>
      </trkpt>
      <trkpt lat="49.36754" lon="-1.79143">
        <time>2023-08-22T15:25:20.150+00:00</time>
      </trkpt>
      <trkpt lat="49.36755" lon="-1.79151">
        <time>2023-08-22T15:25:24.662+00:00</time>
      </trkpt>
      <trkpt lat="49.36755" lon="-1.79158">
        <time>2023-08-22T15:25:29.275+00:00</time>
      </trkpt>
      <trkpt lat="49.36755" lon="-1.79164">
        <time>2023-08-22T15:25:33.288+00:00</time>
      </trkpt>
      <trkpt lat="49.36756" lon="-1.79171">
        <time>2023-08-22T15:25:37.292+00:00</time>
      </trkpt>
      <trkpt lat="49.36758" lon="-1.79179">
        <time>2023-08-22T15:25:41.795+00:00</time>
      </trkpt>
      <trkpt lat="49.36759" lon="-1.79187">
        <time>2023-08-22T15:25:46.300+00:00</time>
      </trkpt>
      <trkpt lat="49.36761" lon="-1.79192">
        <time>2023-08-22T15:25:50.401+00:00</time>
      </trkpt>
      <trkpt lat="49.36762" lon="-1.79199">
        <time>2023-08-22T15:25:54.463+00:00</time>
      </trkpt>
      <trkpt lat="49.36761" lon="-1.79207">
        <time>2023-08-22T15:25:59.565+00:00</time>
      </trkpt>
      <trkpt lat="49.36761" lon="-1.79213">
        <time>2023-08-22T15:26:03.667+00:00</time>
      </trkpt>
      <trkpt lat="49.36761" lon="-1.79218">
        <time>2023-08-22T15:26:07.488+00:00</time>
      </trkpt>
      <trkpt lat="49.36762" lon="-1.79224">
        <time>2023-08-22T15:26:12.200+00:00</time>
      </trkpt>
      <trkpt lat="49.36762" lon="-1.79229">
        <time>2023-08-22T15:26:16.409+00:00</time>
      </trkpt>
      <trkpt lat="49.36762" lon="-1.79235">
        <time>2023-08-22T15:26:20.638+00:00</time>
      </trkpt>
      <trkpt lat="49.36763" lon="-1.79241">
        <time>2023-08-22T15:26:24.592+00:00</time>
      </trkpt>
      <trkpt lat="49.36763" lon="-1.79247">
        <time>2023-08-22T15:26:28.490+00:00</time>
      </trkpt>
      <trkpt lat="49.36764" lon="-1.79254">
        <time>2023-08-22T15:26:33.167+00:00</time>
      </trkpt>
      <trkpt lat="49.36765" lon="-1.79261">
        <time>2023-08-22T15:26:37.365+00:00</time>
      </trkpt>
      <trkpt lat="49.36765" lon="-1.79267">
        <time>2023-08-22T15:26:41.767+00:00</time>
      </trkpt>
      <trkpt lat="49.36765" lon="-1.7927">
        <time>2023-08-22T15:26:45.280+00:00</time>
      </trkpt>
      <trkpt lat="49.36765" lon="-1.79272">
        <time>2023-08-22T15:26:49.296+00:00</time>
      </trkpt>
      <trkpt lat="49.36766" lon="-1.79275">
        <time>2023-08-22T15:26:54.312+00:00</time>
      </trkpt>
      <trkpt lat="49.36766" lon="-1.79275">
        <time>2023-08-22T15:26:58.327+00:00</time>
      </trkpt>
      <trkpt lat="49.36769" lon="-1.79278">
        <time>2023-08-22T15:27:02.842+00:00</time>
      </trkpt>
      <trkpt lat="49.3677" lon="-1.79286">
        <time>2023-08-22T15:27:06.853+00:00</time>
      </trkpt>
      <trkpt lat="49.36771" lon="-1.79293">
        <time>2023-08-22T15:27:11.478+00:00</time>
      </trkpt>
      <trkpt lat="49.36771" lon="-1.793">
        <time>2023-08-22T15:27:15.575+00:00</time>
      </trkpt>
      <trkpt lat="49.36771" lon="-1.79307">
        <time>2023-08-22T15:27:19.585+00:00</time>
      </trkpt>
      <trkpt lat="49.36772" lon="-1.79313">
        <time>2023-08-22T15:27:24.095+00:00</time>
      </trkpt>
      <trkpt lat="49.36773" lon="-1.79318">
        <time>2023-08-22T15:27:28.205+00:00</time>
      </trkpt>
      <trkpt lat="49.36772" lon="-1.79325">
        <time>2023-08-22T15:27:32.713+00:00</time>
      </trkpt>
      <trkpt lat="49.36772" lon="-1.79331">
        <time>2023-08-22T15:27:37.221+00:00</time>
      </trkpt>
      <trkpt lat="49.36771" lon="-1.79336">
        <time>2023-08-22T15:27:41.730+00:00</time>
      </trkpt>
      <trkpt lat="49.36773" lon="-1.7934">
        <time>2023-08-22T15:27:46.339+00:00</time>
      </trkpt>
      <trkpt lat="49.36774" lon="-1.79345">
        <time>2023-08-22T15:27:50.447+00:00</time>
      </trkpt>
      <trkpt lat="49.36773" lon="-1.79349">
        <time>2023-08-22T15:27:54.456+00:00</time>
      </trkpt>
      <trkpt lat="49.36773" lon="-1.79354">
        <time>2023-08-22T15:27:59.064+00:00</time>
      </trkpt>
      <trkpt lat="49.36774" lon="-1.79358">
        <time>2023-08-22T15:28:03.172+00:00</time>
      </trkpt>
      <trkpt lat="49.36775" lon="-1.7936">
        <time>2023-08-22T15:28:07.179+00:00</time>
      </trkpt>
      <trkpt lat="49.36777" lon="-1.79364">
        <time>2023-08-22T15:28:11.188+00:00</time>
      </trkpt>
      <trkpt lat="49.36776" lon="-1.79371">
        <time>2023-08-22T15:28:15.698+00:00</time>
      </trkpt>
      <trkpt lat="49.36775" lon="-1.79375">
        <time>2023-08-22T15:28:19.707+00:00</time>
      </trkpt>
      <trkpt lat="49.36776" lon="-1.79379">
        <time>2023-08-22T15:28:23.817+00:00</time>
      </trkpt>
      <trkpt lat="49.36778" lon="-1.79383">
        <time>2023-08-22T15:28:38.450+00:00</time>
      </trkpt>
      <trkpt lat="49.36778" lon="-1.79382">
        <time>2023-08-22T15:28:43.463+00:00</time>
      </trkpt>
      <trkpt lat="49.36779" lon="-1.79388">
        <time>2023-08-22T15:28:47.974+00:00</time>
      </trkpt>
      <trkpt lat="49.3678" lon="-1.79393">
        <time>2023-08-22T15:28:52.485+00:00</time>
      </trkpt>
      <trkpt lat="49.36785" lon="-1.79394">
        <time>2023-08-22T15:28:56.996+00:00</time>
      </trkpt>
      <trkpt lat="49.36788" lon="-1.79396">
        <time>2023-08-22T15:29:01.003+00:00</time>
      </trkpt>
      <trkpt lat="49.36791" lon="-1.79396">
        <time>2023-08-22T15:29:05.506+00:00</time>
      </trkpt>
      <trkpt lat="49.36796" lon="-1.79395">
        <time>2023-08-22T15:29:10.008+00:00</time>
      </trkpt>
      <trkpt lat="49.368" lon="-1.79392">
        <time>2023-08-22T15:29:14.511+00:00</time>
      </trkpt>
      <trkpt lat="49.36805" lon="-1.79393">
        <time>2023-08-22T15:29:19.014+00:00</time>
      </trkpt>
      <trkpt lat="49.36808" lon="-1.79393">
        <time>2023-08-22T15:29:23.518+00:00</time>
      </trkpt>
      <trkpt lat="49.36811" lon="-1.79398">
        <time>2023-08-22T15:29:28.161+00:00</time>
      </trkpt>
      <trkpt lat="49.36814" lon="-1.79401">
        <time>2023-08-22T15:29:32.174+00:00</time>
      </trkpt>
      <trkpt lat="49.36809" lon="-1.79409">
        <time>2023-08-22T15:30:11.578+00:00</time>
      </trkpt>
      <trkpt lat="49.36809" lon="-1.79409">
        <time>2023-08-22T15:30:16.334+00:00</time>
      </trkpt>
      <trkpt lat="49.36809" lon="-1.79409">
        <time>2023-08-22T15:30:21.805+00:00</time>
      </trkpt>
      <trkpt lat="49.36809" lon="-1.7941">
        <time>2023-08-22T15:30:26.786+00:00</time>
      </trkpt>
      <trkpt lat="49.36807" lon="-1.79414">
        <time>2023-08-22T15:30:31.780+00:00</time>
      </trkpt>
      <trkpt lat="49.36807" lon="-1.79418">
        <time>2023-08-22T15:30:35.775+00:00</time>
      </trkpt>
      <trkpt lat="49.36808" lon="-1.79424">
        <time>2023-08-22T15:30:39.779+00:00</time>
      </trkpt>
      <trkpt lat="49.36809" lon="-1.79428">
        <time>2023-08-22T15:30:44.779+00:00</time>
      </trkpt>
      <trkpt lat="49.36809" lon="-1.79433">
        <time>2023-08-22T15:30:49.782+00:00</time>
      </trkpt>
      <trkpt lat="49.3681" lon="-1.79439">
        <time>2023-08-22T15:30:53.858+00:00</time>
      </trkpt>
      <trkpt lat="49.36808" lon="-1.79444">
        <time>2023-08-22T15:30:57.956+00:00</time>
      </trkpt>
      <trkpt lat="49.36809" lon="-1.79449">
        <time>2023-08-22T15:31:02.416+00:00</time>
      </trkpt>
      <trkpt lat="49.3681" lon="-1.79455">
        <time>2023-08-22T15:31:06.356+00:00</time>
      </trkpt>
      <trkpt lat="49.3681" lon="-1.7946">
        <time>2023-08-22T15:31:10.275+00:00</time>
      </trkpt>
      <trkpt lat="49.36811" lon="-1.79465">
        <time>2023-08-22T15:31:14.734+00:00</time>
      </trkpt>
      <trkpt lat="49.36813" lon="-1.79464">
        <time>2023-08-22T15:31:18.932+00:00</time>
      </trkpt>
      <trkpt lat="49.36815" lon="-1.79469">
        <time>2023-08-22T15:31:23.491+00:00</time>
      </trkpt>
      <trkpt lat="49.36816" lon="-1.79475">
        <time>2023-08-22T15:31:27.410+00:00</time>
      </trkpt>
      <trkpt lat="49.3682" lon="-1.7948">
        <time>2023-08-22T15:31:31.808+00:00</time>
      </trkpt>
      <trkpt lat="49.36823" lon="-1.79483">
        <time>2023-08-22T15:31:35.727+00:00</time>
      </trkpt>
      <trkpt lat="49.36825" lon="-1.79489">
        <time>2023-08-22T15:31:40.278+00:00</time>
      </trkpt>
      <trkpt lat="49.36828" lon="-1.79494">
        <time>2023-08-22T15:31:44.413+00:00</time>
      </trkpt>
      <trkpt lat="49.3683" lon="-1.79497">
        <time>2023-08-22T15:31:48.417+00:00</time>
      </trkpt>
      <trkpt lat="49.36834" lon="-1.79498">
        <time>2023-08-22T15:31:52.916+00:00</time>
      </trkpt>
      <trkpt lat="49.36838" lon="-1.79496">
        <time>2023-08-22T15:31:56.955+00:00</time>
      </trkpt>
      <trkpt lat="49.36842" lon="-1.79494">
        <time>2023-08-22T15:32:01.152+00:00</time>
      </trkpt>
      <trkpt lat="49.36847" lon="-1.79493">
        <time>2023-08-22T15:32:05.349+00:00</time>
      </trkpt>
      <trkpt lat="49.3685" lon="-1.79491">
        <time>2023-08-22T15:32:09.904+00:00</time>
      </trkpt>
      <trkpt lat="49.36853" lon="-1.79488">
        <time>2023-08-22T15:32:14.048+00:00</time>
      </trkpt>
      <trkpt lat="49.36857" lon="-1.79488">
        <time>2023-08-22T15:32:18.118+00:00</time>
      </trkpt>
      <trkpt lat="49.36862" lon="-1.79486">
        <time>2023-08-22T15:32:22.253+00:00</time>
      </trkpt>
      <trkpt lat="49.36866" lon="-1.79485">
        <time>2023-08-22T15:32:26.289+00:00</time>
      </trkpt>
      <trkpt lat="49.36871" lon="-1.79485">
        <time>2023-08-22T15:32:30.844+00:00</time>
      </trkpt>
      <trkpt lat="49.36874" lon="-1.79485">
        <time>2023-08-22T15:32:34.920+00:00</time>
      </trkpt>
      <trkpt lat="49.36878" lon="-1.79487">
        <time>2023-08-22T15:32:39.115+00:00</time>
      </trkpt>
      <trkpt lat="49.36882" lon="-1.79489">
        <time>2023-08-22T15:32:43.691+00:00</time>
      </trkpt>
      <trkpt lat="49.36886" lon="-1.79488">
        <time>2023-08-22T15:32:48.247+00:00</time>
      </trkpt>
      <trkpt lat="49.3689" lon="-1.79485">
        <time>2023-08-22T15:32:52.321+00:00</time>
      </trkpt>
      <trkpt lat="49.36893" lon="-1.79485">
        <time>2023-08-22T15:32:56.981+00:00</time>
      </trkpt>
      <trkpt lat="49.36897" lon="-1.79484">
        <time>2023-08-22T15:33:01.188+00:00</time>
      </trkpt>
      <trkpt lat="49.369" lon="-1.79486">
        <time>2023-08-22T15:33:05.361+00:00</time>
      </trkpt>
      <trkpt lat="49.369" lon="-1.79484">
        <time>2023-08-22T15:33:10.033+00:00</time>
      </trkpt>
      <trkpt lat="49.36904" lon="-1.79485">
        <time>2023-08-22T15:33:14.116+00:00</time>
      </trkpt>
      <trkpt lat="49.36907" lon="-1.79488">
        <time>2023-08-22T15:33:17.981+00:00</time>
      </trkpt>
      <trkpt lat="49.3691" lon="-1.79489">
        <time>2023-08-22T15:33:21.981+00:00</time>
      </trkpt>
      <trkpt lat="49.36913" lon="-1.79491">
        <time>2023-08-22T15:33:26.554+00:00</time>
      </trkpt>
      <trkpt lat="49.36916" lon="-1.79491">
        <time>2023-08-22T15:33:30.936+00:00</time>
      </trkpt>
      <trkpt lat="49.36917" lon="-1.7949">
        <time>2023-08-22T15:33:34.945+00:00</time>
      </trkpt>
      <trkpt lat="49.36928" lon="-1.7949">
        <time>2023-08-22T15:34:05.981+00:00</time>
      </trkpt>
      <trkpt lat="49.36929" lon="-1.79484">
        <time>2023-08-22T15:34:10.071+00:00</time>
      </trkpt>
      <trkpt lat="49.36929" lon="-1.79478">
        <time>2023-08-22T15:34:14.586+00:00</time>
      </trkpt>
      <trkpt lat="49.36929" lon="-1.79472">
        <time>2023-08-22T15:34:18.701+00:00</time>
      </trkpt>
      <trkpt lat="49.36928" lon="-1.79467">
        <time>2023-08-22T15:34:22.394+00:00</time>
      </trkpt>
      <trkpt lat="49.36928" lon="-1.7946">
        <time>2023-08-22T15:34:26.902+00:00</time>
      </trkpt>
      <trkpt lat="49.36927" lon="-1.79452">
        <time>2023-08-22T15:34:31.412+00:00</time>
      </trkpt>
      <trkpt lat="49.36926" lon="-1.79449">
        <time>2023-08-22T15:34:35.519+00:00</time>
      </trkpt>
      <trkpt lat="49.36924" lon="-1.79444">
        <ele>1</ele>
        <time>2023-08-22T15:34:39.525+00:00</time>
      </trkpt>
      <trkpt lat="49.36923" lon="-1.79439">
        <ele>1</ele>
        <time>2023-08-22T15:34:44.034+00:00</time>
      </trkpt>
      <trkpt lat="49.36923" lon="-1.79434">
        <ele>1</ele>
        <time>2023-08-22T15:34:48.541+00:00</time>
      </trkpt>
      <trkpt lat="49.36922" lon="-1.79428">
        <ele>1</ele>
        <time>2023-08-22T15:34:52.549+00:00</time>
      </trkpt>
      <trkpt lat="49.36921" lon="-1.79423">
        <ele>1</ele>
        <time>2023-08-22T15:34:57.056+00:00</time>
      </trkpt>
      <trkpt lat="49.36921" lon="-1.79419">
        <ele>1</ele>
        <time>2023-08-22T15:35:01.665+00:00</time>
      </trkpt>
      <trkpt lat="49.36921" lon="-1.79412">
        <ele>1</ele>
        <time>2023-08-22T15:35:06.275+00:00</time>
      </trkpt>
      <trkpt lat="49.3692" lon="-1.79406">
        <ele>1</ele>
        <time>2023-08-22T15:35:10.783+00:00</time>
      </trkpt>
      <trkpt lat="49.36918" lon="-1.794">
        <ele>1</ele>
        <time>2023-08-22T15:35:15.793+00:00</time>
      </trkpt>
      <trkpt lat="49.36919" lon="-1.79394">
        <ele>1</ele>
        <time>2023-08-22T15:35:19.799+00:00</time>
      </trkpt>
      <trkpt lat="49.36918" lon="-1.79388">
        <ele>1</ele>
        <time>2023-08-22T15:35:24.309+00:00</time>
      </trkpt>
      <trkpt lat="49.36918" lon="-1.79382">
        <ele>1</ele>
        <time>2023-08-22T15:35:28.316+00:00</time>
      </trkpt>
      <trkpt lat="49.36918" lon="-1.79376">
        <ele>1</ele>
        <time>2023-08-22T15:35:32.439+00:00</time>
      </trkpt>
      <trkpt lat="49.36917" lon="-1.7937">
        <ele>1</ele>
        <time>2023-08-22T15:35:36.947+00:00</time>
      </trkpt>
      <trkpt lat="49.36917" lon="-1.79362">
        <ele>1</ele>
        <time>2023-08-22T15:35:41.456+00:00</time>
      </trkpt>
      <trkpt lat="49.36919" lon="-1.79358">
        <ele>1</ele>
        <time>2023-08-22T15:35:45.963+00:00</time>
      </trkpt>
      <trkpt lat="49.36919" lon="-1.79353">
        <ele>1</ele>
        <time>2023-08-22T15:35:49.969+00:00</time>
      </trkpt>
      <trkpt lat="49.3692" lon="-1.79348">
        <ele>1</ele>
        <time>2023-08-22T15:35:53.975+00:00</time>
      </trkpt>
      <trkpt lat="49.3692" lon="-1.79343">
        <ele>1</ele>
        <time>2023-08-22T15:35:58.080+00:00</time>
      </trkpt>
      <trkpt lat="49.36919" lon="-1.79336">
        <ele>1</ele>
        <time>2023-08-22T15:36:02.702+00:00</time>
      </trkpt>
      <trkpt lat="49.36917" lon="-1.79329">
        <ele>1</ele>
        <time>2023-08-22T15:36:07.172+00:00</time>
      </trkpt>
      <trkpt lat="49.36916" lon="-1.79323">
        <ele>1</ele>
        <time>2023-08-22T15:36:11.101+00:00</time>
      </trkpt>
      <trkpt lat="49.36916" lon="-1.79317">
        <ele>1</ele>
        <time>2023-08-22T15:36:14.981+00:00</time>
      </trkpt>
      <trkpt lat="49.36915" lon="-1.7931">
        <ele>1</ele>
        <time>2023-08-22T15:36:19.598+00:00</time>
      </trkpt>
      <trkpt lat="49.36916" lon="-1.79304">
        <ele>1</ele>
        <time>2023-08-22T15:36:24.095+00:00</time>
      </trkpt>
      <trkpt lat="49.36915" lon="-1.79298">
        <ele>1</ele>
        <time>2023-08-22T15:36:28.289+00:00</time>
      </trkpt>
      <trkpt lat="49.36914" lon="-1.79294">
        <ele>1</ele>
        <time>2023-08-22T15:36:32.364+00:00</time>
      </trkpt>
      <trkpt lat="49.36913" lon="-1.79289">
        <ele>1</ele>
        <time>2023-08-22T15:36:36.559+00:00</time>
      </trkpt>
      <trkpt lat="49.36911" lon="-1.79284">
        <ele>1</ele>
        <time>2023-08-22T15:36:41.354+00:00</time>
      </trkpt>
      <trkpt lat="49.36909" lon="-1.79277">
        <time>2023-08-22T15:36:45.909+00:00</time>
      </trkpt>
      <trkpt lat="49.36907" lon="-1.79272">
        <time>2023-08-22T15:36:50.424+00:00</time>
      </trkpt>
      <trkpt lat="49.36906" lon="-1.79267">
        <time>2023-08-22T15:36:54.496+00:00</time>
      </trkpt>
      <trkpt lat="49.36904" lon="-1.79261">
        <time>2023-08-22T15:36:59.761+00:00</time>
      </trkpt>
      <trkpt lat="49.36902" lon="-1.79256">
        <time>2023-08-22T15:37:03.721+00:00</time>
      </trkpt>
      <trkpt lat="49.369" lon="-1.7925">
        <ele>1</ele>
        <time>2023-08-22T15:37:07.896+00:00</time>
      </trkpt>
      <trkpt lat="49.36898" lon="-1.79243">
        <ele>1</ele>
        <time>2023-08-22T15:37:11.968+00:00</time>
      </trkpt>
      <trkpt lat="49.36897" lon="-1.79238">
        <ele>1</ele>
        <time>2023-08-22T15:37:16.761+00:00</time>
      </trkpt>
      <trkpt lat="49.36895" lon="-1.79233">
        <ele>1</ele>
        <time>2023-08-22T15:37:20.955+00:00</time>
      </trkpt>
      <trkpt lat="49.36893" lon="-1.79228">
        <ele>1</ele>
        <time>2023-08-22T15:37:25.130+00:00</time>
      </trkpt>
      <trkpt lat="49.36892" lon="-1.79221">
        <ele>1</ele>
        <time>2023-08-22T15:37:29.304+00:00</time>
      </trkpt>
      <trkpt lat="49.3689" lon="-1.79216">
        <ele>1</ele>
        <time>2023-08-22T15:37:33.938+00:00</time>
      </trkpt>
      <trkpt lat="49.36888" lon="-1.79211">
        <ele>1</ele>
        <time>2023-08-22T15:37:38.131+00:00</time>
      </trkpt>
      <trkpt lat="49.36886" lon="-1.79205">
        <ele>1</ele>
        <time>2023-08-22T15:37:42.792+00:00</time>
      </trkpt>
      <trkpt lat="49.36884" lon="-1.792">
        <ele>1</ele>
        <time>2023-08-22T15:37:46.981+00:00</time>
      </trkpt>
      <trkpt lat="49.3688" lon="-1.79196">
        <ele>1</ele>
        <time>2023-08-22T15:37:51.187+00:00</time>
      </trkpt>
      <trkpt lat="49.36877" lon="-1.79192">
        <ele>1</ele>
        <time>2023-08-22T15:37:55.786+00:00</time>
      </trkpt>
      <trkpt lat="49.36874" lon="-1.79189">
        <ele>1</ele>
        <time>2023-08-22T15:37:59.329+00:00</time>
      </trkpt>
      <trkpt lat="49.36872" lon="-1.79184">
        <ele>1</ele>
        <time>2023-08-22T15:38:03.804+00:00</time>
      </trkpt>
      <trkpt lat="49.36869" lon="-1.7918">
        <ele>1</ele>
        <time>2023-08-22T15:38:07.806+00:00</time>
      </trkpt>
      <trkpt lat="49.36868" lon="-1.79176">
        <ele>1</ele>
        <time>2023-08-22T15:38:11.784+00:00</time>
      </trkpt>
      <trkpt lat="49.36866" lon="-1.79173">
        <ele>1</ele>
        <time>2023-08-22T15:38:15.974+00:00</time>
      </trkpt>
      <trkpt lat="49.36863" lon="-1.7917">
        <ele>1</ele>
        <time>2023-08-22T15:38:20.523+00:00</time>
      </trkpt>
      <trkpt lat="49.3686" lon="-1.79166">
        <ele>1</ele>
        <time>2023-08-22T15:38:24.713+00:00</time>
      </trkpt>
      <trkpt lat="49.3686" lon="-1.79158">
        <ele>1.3</ele>
        <time>2023-08-22T15:38:29.103+00:00</time>
      </trkpt>
      <trkpt lat="49.36859" lon="-1.79151">
        <ele>1.5</ele>
        <time>2023-08-22T15:38:33.295+00:00</time>
      </trkpt>
      <trkpt lat="49.3686" lon="-1.79145">
        <ele>1.7</ele>
        <time>2023-08-22T15:38:37.367+00:00</time>
      </trkpt>
      <trkpt lat="49.36861" lon="-1.7914">
        <ele>2</ele>
        <time>2023-08-22T15:38:41.902+00:00</time>
      </trkpt>
      <trkpt lat="49.36861" lon="-1.79132">
        <ele>2</ele>
        <time>2023-08-22T15:38:46.332+00:00</time>
      </trkpt>
      <trkpt lat="49.36862" lon="-1.79125">
        <ele>2</ele>
        <time>2023-08-22T15:38:50.524+00:00</time>
      </trkpt>
      <trkpt lat="49.36864" lon="-1.7912">
        <ele>2</ele>
        <time>2023-08-22T15:38:54.981+00:00</time>
      </trkpt>
      <trkpt lat="49.36863" lon="-1.79118">
        <ele>2</ele>
        <time>2023-08-22T15:38:59.496+00:00</time>
      </trkpt>
      <trkpt lat="49.36863" lon="-1.79117">
        <ele>2</ele>
        <time>2023-08-22T15:39:17.978+00:00</time>
      </trkpt>
      <trkpt lat="49.36861" lon="-1.79113">
        <ele>2</ele>
        <time>2023-08-22T15:39:21.984+00:00</time>
      </trkpt>
      <trkpt lat="49.36863" lon="-1.79105">
        <ele>2</ele>
        <time>2023-08-22T15:39:26.489+00:00</time>
      </trkpt>
      <trkpt lat="49.36862" lon="-1.79098">
        <ele>2</ele>
        <time>2023-08-22T15:39:30.531+00:00</time>
      </trkpt>
      <trkpt lat="49.36861" lon="-1.79094">
        <ele>2</ele>
        <time>2023-08-22T15:39:34.950+00:00</time>
      </trkpt>
      <trkpt lat="49.3686" lon="-1.79087">
        <ele>2</ele>
        <time>2023-08-22T15:39:38.968+00:00</time>
      </trkpt>
      <trkpt lat="49.3686" lon="-1.7908">
        <ele>2</ele>
        <time>2023-08-22T15:39:43.978+00:00</time>
      </trkpt>
      <trkpt lat="49.3686" lon="-1.79074">
        <ele>2</ele>
        <time>2023-08-22T15:39:48.386+00:00</time>
      </trkpt>
      <trkpt lat="49.36859" lon="-1.79067">
        <ele>2</ele>
        <time>2023-08-22T15:39:52.865+00:00</time>
      </trkpt>
      <trkpt lat="49.36858" lon="-1.79062">
        <ele>2</ele>
        <time>2023-08-22T15:39:57.342+00:00</time>
      </trkpt>
      <trkpt lat="49.36857" lon="-1.79056">
        <ele>2</ele>
        <time>2023-08-22T15:40:01.320+00:00</time>
      </trkpt>
      <trkpt lat="49.36855" lon="-1.7905">
        <ele>2.2</ele>
        <time>2023-08-22T15:40:05.395+00:00</time>
      </trkpt>
      <trkpt lat="49.36853" lon="-1.79044">
        <ele>2.3</ele>
        <time>2023-08-22T15:40:09.589+00:00</time>
      </trkpt>
      <trkpt lat="49.36851" lon="-1.79039">
        <ele>2.4</ele>
        <time>2023-08-22T15:40:13.782+00:00</time>
      </trkpt>
      <trkpt lat="49.36849" lon="-1.79034">
        <ele>2.5</ele>
        <time>2023-08-22T15:40:17.973+00:00</time>
      </trkpt>
      <trkpt lat="49.36847" lon="-1.79029">
        <ele>2.5</ele>
        <time>2023-08-22T15:40:22.166+00:00</time>
      </trkpt>
      <trkpt lat="49.36845" lon="-1.79023">
        <ele>2.5</ele>
        <time>2023-08-22T15:40:26.359+00:00</time>
      </trkpt>
      <trkpt lat="49.36844" lon="-1.79017">
        <ele>2.6</ele>
        <time>2023-08-22T15:40:30.932+00:00</time>
      </trkpt>
      <trkpt lat="49.36844" lon="-1.79011">
        <ele>2.7</ele>
        <time>2023-08-22T15:40:35.367+00:00</time>
      </trkpt>
      <trkpt lat="49.36842" lon="-1.79005">
        <ele>2.9</ele>
        <time>2023-08-22T15:40:40.519+00:00</time>
      </trkpt>
      <trkpt lat="49.36839" lon="-1.79">
        <ele>3</ele>
        <time>2023-08-22T15:40:45.310+00:00</time>
      </trkpt>
      <trkpt lat="49.36837" lon="-1.78994">
        <ele>3.1</ele>
        <time>2023-08-22T15:40:49.504+00:00</time>
      </trkpt>
      <trkpt lat="49.36835" lon="-1.78989">
        <ele>3</ele>
        <time>2023-08-22T15:40:53.697+00:00</time>
      </trkpt>
      <trkpt lat="49.36832" lon="-1.78984">
        <ele>2.9</ele>
        <time>2023-08-22T15:40:58.372+00:00</time>
      </trkpt>
      <trkpt lat="49.36829" lon="-1.7898">
        <ele>2.8</ele>
        <time>2023-08-22T15:41:02.566+00:00</time>
      </trkpt>
      <trkpt lat="49.36826" lon="-1.78976">
        <ele>2.7</ele>
        <time>2023-08-22T15:41:06.760+00:00</time>
      </trkpt>
      <trkpt lat="49.36824" lon="-1.78972">
        <ele>2.6</ele>
        <time>2023-08-22T15:41:10.355+00:00</time>
      </trkpt>
      <trkpt lat="49.36821" lon="-1.78968">
        <ele>2.7</ele>
        <time>2023-08-22T15:41:14.548+00:00</time>
      </trkpt>
      <trkpt lat="49.36819" lon="-1.78963">
        <ele>2.6</ele>
        <time>2023-08-22T15:41:18.740+00:00</time>
      </trkpt>
      <trkpt lat="49.36817" lon="-1.78959">
        <ele>2.6</ele>
        <time>2023-08-22T15:41:22.931+00:00</time>
      </trkpt>
      <trkpt lat="49.36815" lon="-1.78955">
        <ele>2.6</ele>
        <time>2023-08-22T15:41:27.123+00:00</time>
      </trkpt>
      <trkpt lat="49.36814" lon="-1.78949">
        <ele>2.5</ele>
        <time>2023-08-22T15:41:31.316+00:00</time>
      </trkpt>
      <trkpt lat="49.36812" lon="-1.78945">
        <ele>2.4</ele>
        <time>2023-08-22T15:41:35.371+00:00</time>
      </trkpt>
      <trkpt lat="49.36811" lon="-1.7894">
        <ele>2.5</ele>
        <time>2023-08-22T15:41:39.378+00:00</time>
      </trkpt>
      <trkpt lat="49.3681" lon="-1.78937">
        <ele>2.5</ele>
        <time>2023-08-22T15:41:44.392+00:00</time>
      </trkpt>
      <trkpt lat="49.3681" lon="-1.78931">
        <ele>2.6</ele>
        <time>2023-08-22T15:41:48.908+00:00</time>
      </trkpt>
      <trkpt lat="49.36808" lon="-1.78927">
        <ele>2.7</ele>
        <time>2023-08-22T15:41:52.918+00:00</time>
      </trkpt>
      <trkpt lat="49.36805" lon="-1.78924">
        <ele>2.7</ele>
        <time>2023-08-22T15:41:57.426+00:00</time>
      </trkpt>
      <trkpt lat="49.36802" lon="-1.78918">
        <ele>2.7</ele>
        <time>2023-08-22T15:42:01.432+00:00</time>
      </trkpt>
      <trkpt lat="49.368" lon="-1.78912">
        <ele>2.8</ele>
        <time>2023-08-22T15:42:05.439+00:00</time>
      </trkpt>
      <trkpt lat="49.36798" lon="-1.78906">
        <ele>3.1</ele>
        <time>2023-08-22T15:42:09.446+00:00</time>
      </trkpt>
      <trkpt lat="49.36795" lon="-1.78901">
        <ele>3.3</ele>
        <time>2023-08-22T15:42:13.453+00:00</time>
      </trkpt>
      <trkpt lat="49.36793" lon="-1.78897">
        <ele>3.4</ele>
        <time>2023-08-22T15:42:17.458+00:00</time>
      </trkpt>
      <trkpt lat="49.3679" lon="-1.78891">
        <ele>3.9</ele>
        <time>2023-08-22T15:42:22.566+00:00</time>
      </trkpt>
      <trkpt lat="49.36786" lon="-1.78885">
        <ele>4</ele>
        <time>2023-08-22T15:42:27.072+00:00</time>
      </trkpt>
      <trkpt lat="49.36785" lon="-1.78882">
        <ele>4</ele>
        <time>2023-08-22T15:42:31.580+00:00</time>
      </trkpt>
      <trkpt lat="49.36783" lon="-1.78879">
        <ele>4</ele>
        <time>2023-08-22T15:42:36.087+00:00</time>
      </trkpt>
      <trkpt lat="49.36783" lon="-1.78874">
        <ele>4</ele>
        <time>2023-08-22T15:42:40.095+00:00</time>
      </trkpt>
      <trkpt lat="49.36783" lon="-1.78867">
        <ele>4</ele>
        <time>2023-08-22T15:42:44.604+00:00</time>
      </trkpt>
      <trkpt lat="49.36782" lon="-1.78862">
        <ele>4</ele>
        <time>2023-08-22T15:42:48.611+00:00</time>
      </trkpt>
      <trkpt lat="49.36783" lon="-1.78856">
        <time>2023-08-22T15:42:53.118+00:00</time>
      </trkpt>
      <trkpt lat="49.36783" lon="-1.7885">
        <time>2023-08-22T15:42:57.125+00:00</time>
      </trkpt>
      <trkpt lat="49.36783" lon="-1.78843">
        <time>2023-08-22T15:43:01.633+00:00</time>
      </trkpt>
      <trkpt lat="49.36782" lon="-1.78839">
        <time>2023-08-22T15:43:05.640+00:00</time>
      </trkpt>
      <trkpt lat="49.36783" lon="-1.78834">
        <time>2023-08-22T15:43:10.148+00:00</time>
      </trkpt>
      <trkpt lat="49.36784" lon="-1.78829">
        <time>2023-08-22T15:43:14.654+00:00</time>
      </trkpt>
      <trkpt lat="49.36785" lon="-1.78825">
        <time>2023-08-22T15:43:18.760+00:00</time>
      </trkpt>
      <trkpt lat="49.36787" lon="-1.7882">
        <time>2023-08-22T15:43:23.266+00:00</time>
      </trkpt>
      <trkpt lat="49.36791" lon="-1.78816">
        <time>2023-08-22T15:43:27.372+00:00</time>
      </trkpt>
      <trkpt lat="49.36793" lon="-1.78812">
        <time>2023-08-22T15:43:31.879+00:00</time>
      </trkpt>
      <trkpt lat="49.36795" lon="-1.78807">
        <time>2023-08-22T15:43:36.481+00:00</time>
      </trkpt>
      <trkpt lat="49.36798" lon="-1.78802">
        <time>2023-08-22T15:43:40.096+00:00</time>
      </trkpt>
      <trkpt lat="49.36799" lon="-1.78796">
        <time>2023-08-22T15:43:44.202+00:00</time>
      </trkpt>
      <trkpt lat="49.368" lon="-1.78789">
        <time>2023-08-22T15:43:48.504+00:00</time>
      </trkpt>
      <trkpt lat="49.36801" lon="-1.78783">
        <time>2023-08-22T15:43:53.162+00:00</time>
      </trkpt>
      <trkpt lat="49.36801" lon="-1.78776">
        <ele>1</ele>
        <time>2023-08-22T15:43:57.841+00:00</time>
      </trkpt>
      <trkpt lat="49.36802" lon="-1.78769">
        <ele>1</ele>
        <time>2023-08-22T15:44:02.318+00:00</time>
      </trkpt>
      <trkpt lat="49.36803" lon="-1.78763">
        <ele>1</ele>
        <time>2023-08-22T15:44:06.516+00:00</time>
      </trkpt>
      <trkpt lat="49.36804" lon="-1.78756">
        <ele>1</ele>
        <time>2023-08-22T15:44:11.270+00:00</time>
      </trkpt>
      <trkpt lat="49.36803" lon="-1.78749">
        <ele>1</ele>
        <time>2023-08-22T15:44:15.345+00:00</time>
      </trkpt>
      <trkpt lat="49.36803" lon="-1.78743">
        <ele>1</ele>
        <time>2023-08-22T15:44:19.541+00:00</time>
      </trkpt>
      <trkpt lat="49.36803" lon="-1.78738">
        <ele>1</ele>
        <time>2023-08-22T15:44:23.676+00:00</time>
      </trkpt>
      <trkpt lat="49.36804" lon="-1.78733">
        <ele>1</ele>
        <time>2023-08-22T15:44:27.749+00:00</time>
      </trkpt>
      <trkpt lat="49.36806" lon="-1.7873">
        <ele>1</ele>
        <time>2023-08-22T15:44:31.942+00:00</time>
      </trkpt>
      <trkpt lat="49.36808" lon="-1.78726">
        <ele>1</ele>
        <time>2023-08-22T15:44:36.136+00:00</time>
      </trkpt>
      <trkpt lat="49.36808" lon="-1.78722">
        <ele>1</ele>
        <time>2023-08-22T15:44:40.690+00:00</time>
      </trkpt>
      <trkpt lat="49.36808" lon="-1.78719">
        <ele>1</ele>
        <time>2023-08-22T15:44:45.353+00:00</time>
      </trkpt>
      <trkpt lat="49.36812" lon="-1.78716">
        <ele>1</ele>
        <time>2023-08-22T15:44:49.545+00:00</time>
      </trkpt>
      <trkpt lat="49.36815" lon="-1.78715">
        <ele>1</ele>
        <time>2023-08-22T15:44:54.196+00:00</time>
      </trkpt>
      <trkpt lat="49.36816" lon="-1.78712">
        <ele>1</ele>
        <time>2023-08-22T15:44:58.366+00:00</time>
      </trkpt>
      <trkpt lat="49.36818" lon="-1.7871">
        <ele>1</ele>
        <time>2023-08-22T15:45:02.820+00:00</time>
      </trkpt>
      <trkpt lat="49.36821" lon="-1.7871">
        <ele>1</ele>
        <time>2023-08-22T15:45:07.345+00:00</time>
      </trkpt>
      <trkpt lat="49.36823" lon="-1.78709">
        <ele>1</ele>
        <time>2023-08-22T15:45:11.810+00:00</time>
      </trkpt>
      <trkpt lat="49.36826" lon="-1.78708">
        <ele>1</ele>
        <time>2023-08-22T15:45:16.206+00:00</time>
      </trkpt>
      <trkpt lat="49.36828" lon="-1.78702">
        <ele>1</ele>
        <time>2023-08-22T15:45:20.258+00:00</time>
      </trkpt>
      <trkpt lat="49.36829" lon="-1.78695">
        <ele>1</ele>
        <time>2023-08-22T15:45:24.760+00:00</time>
      </trkpt>
      <trkpt lat="49.36827" lon="-1.78691">
        <ele>1</ele>
        <time>2023-08-22T15:45:28.758+00:00</time>
      </trkpt>
      <trkpt lat="49.36825" lon="-1.78685">
        <ele>1</ele>
        <time>2023-08-22T15:45:32.950+00:00</time>
      </trkpt>
      <trkpt lat="49.36823" lon="-1.7868">
        <ele>1</ele>
        <time>2023-08-22T15:45:37.500+00:00</time>
      </trkpt>
      <trkpt lat="49.36821" lon="-1.78675">
        <ele>1</ele>
        <time>2023-08-22T15:45:42.170+00:00</time>
      </trkpt>
      <trkpt lat="49.36819" lon="-1.7867">
        <ele>1</ele>
        <time>2023-08-22T15:45:46.360+00:00</time>
      </trkpt>
      <trkpt lat="49.36817" lon="-1.78664">
        <ele>1</ele>
        <time>2023-08-22T15:45:50.981+00:00</time>
      </trkpt>
      <trkpt lat="49.36817" lon="-1.78658">
        <ele>1</ele>
        <time>2023-08-22T15:45:55.558+00:00</time>
      </trkpt>
      <trkpt lat="49.36818" lon="-1.78657">
        <ele>1</ele>
        <time>2023-08-22T15:45:59.746+00:00</time>
      </trkpt>
      <trkpt lat="49.36818" lon="-1.78655">
        <ele>1</ele>
        <time>2023-08-22T15:46:03.939+00:00</time>
      </trkpt>
      <trkpt lat="49.36817" lon="-1.78648">
        <ele>1</ele>
        <time>2023-08-22T15:46:08.613+00:00</time>
      </trkpt>
      <trkpt lat="49.36816" lon="-1.78642">
        <ele>1</ele>
        <time>2023-08-22T15:46:12.568+00:00</time>
      </trkpt>
      <trkpt lat="49.36815" lon="-1.78636">
        <time>2023-08-22T15:46:16.724+00:00</time>
      </trkpt>
      <trkpt lat="49.36815" lon="-1.78631">
        <time>2023-08-22T15:46:20.543+00:00</time>
      </trkpt>
      <trkpt lat="49.36813" lon="-1.78626">
        <time>2023-08-22T15:46:25.618+00:00</time>
      </trkpt>
      <trkpt lat="49.36809" lon="-1.78624">
        <time>2023-08-22T15:46:29.770+00:00</time>
      </trkpt>
      <trkpt lat="49.36805" lon="-1.7862">
        <time>2023-08-22T15:46:34.325+00:00</time>
      </trkpt>
      <trkpt lat="49.36803" lon="-1.78612">
        <time>2023-08-22T15:46:39.040+00:00</time>
      </trkpt>
      <trkpt lat="49.36804" lon="-1.78605">
        <time>2023-08-22T15:46:42.981+00:00</time>
      </trkpt>
      <trkpt lat="49.36804" lon="-1.78597">
        <time>2023-08-22T15:46:47.466+00:00</time>
      </trkpt>
      <trkpt lat="49.36805" lon="-1.78591">
        <time>2023-08-22T15:46:51.538+00:00</time>
      </trkpt>
      <trkpt lat="49.36806" lon="-1.78584">
        <time>2023-08-22T15:46:55.981+00:00</time>
      </trkpt>
      <trkpt lat="49.36806" lon="-1.78578">
        <time>2023-08-22T15:47:00.144+00:00</time>
      </trkpt>
      <trkpt lat="49.36805" lon="-1.78572">
        <time>2023-08-22T15:47:04.338+00:00</time>
      </trkpt>
      <trkpt lat="49.36805" lon="-1.78567">
        <time>2023-08-22T15:47:08.530+00:00</time>
      </trkpt>
      <trkpt lat="49.36804" lon="-1.78561">
        <time>2023-08-22T15:47:13.322+00:00</time>
      </trkpt>
      <trkpt lat="49.36806" lon="-1.78554">
        <time>2023-08-22T15:47:17.517+00:00</time>
      </trkpt>
      <trkpt lat="49.36807" lon="-1.78546">
        <time>2023-08-22T15:47:21.636+00:00</time>
      </trkpt>
      <trkpt lat="49.36806" lon="-1.78538">
        <time>2023-08-22T15:47:26.370+00:00</time>
      </trkpt>
      <trkpt lat="49.36806" lon="-1.78532">
        <time>2023-08-22T15:47:30.325+00:00</time>
      </trkpt>
      <trkpt lat="49.36808" lon="-1.78527">
        <time>2023-08-22T15:47:34.901+00:00</time>
      </trkpt>
      <trkpt lat="49.3681" lon="-1.78521">
        <time>2023-08-22T15:47:38.953+00:00</time>
      </trkpt>
      <trkpt lat="49.36811" lon="-1.78515">
        <time>2023-08-22T15:47:43.506+00:00</time>
      </trkpt>
      <trkpt lat="49.36813" lon="-1.78508">
        <time>2023-08-22T15:47:47.699+00:00</time>
      </trkpt>
      <trkpt lat="49.36814" lon="-1.78502">
        <time>2023-08-22T15:47:51.799+00:00</time>
      </trkpt>
      <trkpt lat="49.36815" lon="-1.78495">
        <time>2023-08-22T15:47:55.963+00:00</time>
      </trkpt>
      <trkpt lat="49.36816" lon="-1.78489">
        <time>2023-08-22T15:48:00.155+00:00</time>
      </trkpt>
      <trkpt lat="49.36816" lon="-1.78484">
        <time>2023-08-22T15:48:04.704+00:00</time>
      </trkpt>
      <trkpt lat="49.36815" lon="-1.78477">
        <time>2023-08-22T15:48:09.375+00:00</time>
      </trkpt>
      <trkpt lat="49.36815" lon="-1.7847">
        <time>2023-08-22T15:48:13.908+00:00</time>
      </trkpt>
      <trkpt lat="49.36814" lon="-1.78464">
        <time>2023-08-22T15:48:17.979+00:00</time>
      </trkpt>
      <trkpt lat="49.36815" lon="-1.78459">
        <time>2023-08-22T15:48:22.611+00:00</time>
      </trkpt>
      <trkpt lat="49.36816" lon="-1.78453">
        <time>2023-08-22T15:48:26.564+00:00</time>
      </trkpt>
      <trkpt lat="49.36818" lon="-1.78446">
        <time>2023-08-22T15:48:31.355+00:00</time>
      </trkpt>
      <trkpt lat="49.36818" lon="-1.7844">
        <time>2023-08-22T15:48:35.530+00:00</time>
      </trkpt>
      <trkpt lat="49.36817" lon="-1.78434">
        <time>2023-08-22T15:48:39.724+00:00</time>
      </trkpt>
      <trkpt lat="49.36816" lon="-1.78428">
        <time>2023-08-22T15:48:43.918+00:00</time>
      </trkpt>
      <trkpt lat="49.36815" lon="-1.78423">
        <time>2023-08-22T15:48:48.112+00:00</time>
      </trkpt>
      <trkpt lat="49.36814" lon="-1.78417">
        <time>2023-08-22T15:48:52.664+00:00</time>
      </trkpt>
      <trkpt lat="49.36813" lon="-1.7841">
        <time>2023-08-22T15:48:56.736+00:00</time>
      </trkpt>
      <trkpt lat="49.36812" lon="-1.78404">
        <time>2023-08-22T15:49:01.287+00:00</time>
      </trkpt>
      <trkpt lat="49.36811" lon="-1.78399">
        <time>2023-08-22T15:49:05.358+00:00</time>
      </trkpt>
      <trkpt lat="49.3681" lon="-1.78393">
        <time>2023-08-22T15:49:09.908+00:00</time>
      </trkpt>
      <trkpt lat="49.36809" lon="-1.78388">
        <time>2023-08-22T15:49:14.098+00:00</time>
      </trkpt>
      <trkpt lat="49.36809" lon="-1.78382">
        <time>2023-08-22T15:49:18.530+00:00</time>
      </trkpt>
      <trkpt lat="49.36807" lon="-1.78375">
        <time>2023-08-22T15:49:22.722+00:00</time>
      </trkpt>
      <trkpt lat="49.36807" lon="-1.78368">
        <time>2023-08-22T15:49:26.914+00:00</time>
      </trkpt>
      <trkpt lat="49.36807" lon="-1.78362">
        <time>2023-08-22T15:49:31.105+00:00</time>
      </trkpt>
      <trkpt lat="49.36807" lon="-1.78355">
        <time>2023-08-22T15:49:35.176+00:00</time>
      </trkpt>
      <trkpt lat="49.36806" lon="-1.78349">
        <time>2023-08-22T15:49:39.366+00:00</time>
      </trkpt>
      <trkpt lat="49.36805" lon="-1.78344">
        <time>2023-08-22T15:49:43.536+00:00</time>
      </trkpt>
      <trkpt lat="49.36804" lon="-1.78336">
        <time>2023-08-22T15:49:48.325+00:00</time>
      </trkpt>
      <trkpt lat="49.36803" lon="-1.78331">
        <time>2023-08-22T15:49:52.798+00:00</time>
      </trkpt>
      <trkpt lat="49.36801" lon="-1.78325">
        <time>2023-08-22T15:49:56.944+00:00</time>
      </trkpt>
      <trkpt lat="49.368" lon="-1.78318">
        <time>2023-08-22T15:50:01.613+00:00</time>
      </trkpt>
      <trkpt lat="49.368" lon="-1.78312">
        <time>2023-08-22T15:50:05.785+00:00</time>
      </trkpt>
      <trkpt lat="49.36799" lon="-1.78306">
        <time>2023-08-22T15:50:09.976+00:00</time>
      </trkpt>
      <trkpt lat="49.36798" lon="-1.783">
        <time>2023-08-22T15:50:14.525+00:00</time>
      </trkpt>
      <trkpt lat="49.36798" lon="-1.78294">
        <time>2023-08-22T15:50:18.981+00:00</time>
      </trkpt>
      <trkpt lat="49.36797" lon="-1.78288">
        <time>2023-08-22T15:50:23.565+00:00</time>
      </trkpt>
      <trkpt lat="49.36796" lon="-1.78283">
        <time>2023-08-22T15:50:27.746+00:00</time>
      </trkpt>
      <trkpt lat="49.36795" lon="-1.78278">
        <time>2023-08-22T15:50:31.880+00:00</time>
      </trkpt>
      <trkpt lat="49.36792" lon="-1.78272">
        <time>2023-08-22T15:50:36.369+00:00</time>
      </trkpt>
      <trkpt lat="49.36791" lon="-1.78265">
        <time>2023-08-22T15:50:40.320+00:00</time>
      </trkpt>
      <trkpt lat="49.36789" lon="-1.7826">
        <time>2023-08-22T15:50:44.392+00:00</time>
      </trkpt>
      <trkpt lat="49.36788" lon="-1.78256">
        <time>2023-08-22T15:50:48.345+00:00</time>
      </trkpt>
      <trkpt lat="49.36787" lon="-1.7825">
        <time>2023-08-22T15:50:53.375+00:00</time>
      </trkpt>
      <trkpt lat="49.36785" lon="-1.78245">
        <time>2023-08-22T15:50:57.530+00:00</time>
      </trkpt>
      <trkpt lat="49.36784" lon="-1.7824">
        <time>2023-08-22T15:51:01.723+00:00</time>
      </trkpt>
      <trkpt lat="49.36783" lon="-1.78235">
        <time>2023-08-22T15:51:05.915+00:00</time>
      </trkpt>
      <trkpt lat="49.36781" lon="-1.78229">
        <time>2023-08-22T15:51:10.707+00:00</time>
      </trkpt>
      <trkpt lat="49.36779" lon="-1.78223">
        <time>2023-08-22T15:51:15.339+00:00</time>
      </trkpt>
      <trkpt lat="49.36778" lon="-1.78217">
        <time>2023-08-22T15:51:19.981+00:00</time>
      </trkpt>
      <trkpt lat="49.36777" lon="-1.78214">
        <time>2023-08-22T15:51:24.562+00:00</time>
      </trkpt>
      <trkpt lat="49.36776" lon="-1.7821">
        <time>2023-08-22T15:51:29.232+00:00</time>
      </trkpt>
      <trkpt lat="49.36773" lon="-1.78203">
        <time>2023-08-22T15:51:33.784+00:00</time>
      </trkpt>
      <trkpt lat="49.36769" lon="-1.78198">
        <time>2023-08-22T15:51:37.735+00:00</time>
      </trkpt>
      <trkpt lat="49.36769" lon="-1.78192">
        <time>2023-08-22T15:51:41.926+00:00</time>
      </trkpt>
      <trkpt lat="49.36769" lon="-1.78186">
        <time>2023-08-22T15:51:46.117+00:00</time>
      </trkpt>
      <trkpt lat="49.36768" lon="-1.7818">
        <time>2023-08-22T15:51:50.308+00:00</time>
      </trkpt>
      <trkpt lat="49.36768" lon="-1.78175">
        <time>2023-08-22T15:51:54.340+00:00</time>
      </trkpt>
      <trkpt lat="49.36769" lon="-1.78168">
        <time>2023-08-22T15:51:59.321+00:00</time>
      </trkpt>
      <trkpt lat="49.3677" lon="-1.78161">
        <time>2023-08-22T15:52:03.810+00:00</time>
      </trkpt>
      <trkpt lat="49.36772" lon="-1.78155">
        <time>2023-08-22T15:52:07.819+00:00</time>
      </trkpt>
      <trkpt lat="49.36773" lon="-1.78149">
        <time>2023-08-22T15:52:12.367+00:00</time>
      </trkpt>
      <trkpt lat="49.36773" lon="-1.78143">
        <time>2023-08-22T15:52:17.034+00:00</time>
      </trkpt>
      <trkpt lat="49.36773" lon="-1.78137">
        <time>2023-08-22T15:52:20.981+00:00</time>
      </trkpt>
      <trkpt lat="49.36774" lon="-1.78132">
        <time>2023-08-22T15:52:25.174+00:00</time>
      </trkpt>
      <trkpt lat="49.36772" lon="-1.78126">
        <time>2023-08-22T15:52:29.835+00:00</time>
      </trkpt>
      <trkpt lat="49.36771" lon="-1.78122">
        <time>2023-08-22T15:52:33.922+00:00</time>
      </trkpt>
      <trkpt lat="49.36772" lon="-1.78116">
        <time>2023-08-22T15:52:38.099+00:00</time>
      </trkpt>
      <trkpt lat="49.36771" lon="-1.78111">
        <time>2023-08-22T15:52:42.746+00:00</time>
      </trkpt>
      <trkpt lat="49.36771" lon="-1.78106">
        <time>2023-08-22T15:52:46.933+00:00</time>
      </trkpt>
      <trkpt lat="49.3677" lon="-1.781">
        <time>2023-08-22T15:52:51.480+00:00</time>
      </trkpt>
      <trkpt lat="49.3677" lon="-1.78094">
        <time>2023-08-22T15:52:55.981+00:00</time>
      </trkpt>
      <trkpt lat="49.36771" lon="-1.78085">
        <time>2023-08-22T15:53:00.570+00:00</time>
      </trkpt>
      <trkpt lat="49.36772" lon="-1.7808">
        <time>2023-08-22T15:53:05.355+00:00</time>
      </trkpt>
      <trkpt lat="49.3677" lon="-1.78075">
        <time>2023-08-22T15:53:09.818+00:00</time>
      </trkpt>
      <trkpt lat="49.36769" lon="-1.78069">
        <time>2023-08-22T15:53:14.260+00:00</time>
      </trkpt>
      <trkpt lat="49.36768" lon="-1.78064">
        <time>2023-08-22T15:53:18.258+00:00</time>
      </trkpt>
      <trkpt lat="49.36768" lon="-1.7806">
        <time>2023-08-22T15:53:22.326+00:00</time>
      </trkpt>
      <trkpt lat="49.36768" lon="-1.78055">
        <time>2023-08-22T15:53:26.394+00:00</time>
      </trkpt>
      <trkpt lat="49.36767" lon="-1.78049">
        <time>2023-08-22T15:53:30.882+00:00</time>
      </trkpt>
      <trkpt lat="49.36765" lon="-1.78043">
        <time>2023-08-22T15:53:35.367+00:00</time>
      </trkpt>
      <trkpt lat="49.36765" lon="-1.78038">
        <time>2023-08-22T15:53:39.435+00:00</time>
      </trkpt>
      <trkpt lat="49.36764" lon="-1.78034">
        <time>2023-08-22T15:53:43.981+00:00</time>
      </trkpt>
      <trkpt lat="49.36763" lon="-1.78029">
        <time>2023-08-22T15:53:47.931+00:00</time>
      </trkpt>
      <trkpt lat="49.36763" lon="-1.78022">
        <time>2023-08-22T15:53:52.597+00:00</time>
      </trkpt>
      <trkpt lat="49.36763" lon="-1.78018">
        <time>2023-08-22T15:53:56.785+00:00</time>
      </trkpt>
      <trkpt lat="49.36762" lon="-1.78012">
        <time>2023-08-22T15:54:00.975+00:00</time>
      </trkpt>
      <trkpt lat="49.36763" lon="-1.78006">
        <time>2023-08-22T15:54:05.643+00:00</time>
      </trkpt>
      <trkpt lat="49.36764" lon="-1.78001">
        <time>2023-08-22T15:54:09.713+00:00</time>
      </trkpt>
      <trkpt lat="49.36765" lon="-1.77996">
        <time>2023-08-22T15:54:14.261+00:00</time>
      </trkpt>
      <trkpt lat="49.36767" lon="-1.7799">
        <time>2023-08-22T15:54:18.392+00:00</time>
      </trkpt>
      <trkpt lat="49.36767" lon="-1.77985">
        <time>2023-08-22T15:54:23.179+00:00</time>
      </trkpt>
      <trkpt lat="49.36769" lon="-1.77981">
        <time>2023-08-22T15:54:27.128+00:00</time>
      </trkpt>
      <trkpt lat="49.3677" lon="-1.77976">
        <time>2023-08-22T15:54:31.317+00:00</time>
      </trkpt>
      <trkpt lat="49.36769" lon="-1.77971">
        <time>2023-08-22T15:54:35.385+00:00</time>
      </trkpt>
      <trkpt lat="49.36767" lon="-1.77965">
        <time>2023-08-22T15:54:39.933+00:00</time>
      </trkpt>
      <trkpt lat="49.36767" lon="-1.77959">
        <time>2023-08-22T15:54:43.981+00:00</time>
      </trkpt>
      <trkpt lat="49.36768" lon="-1.77954">
        <time>2023-08-22T15:54:48.785+00:00</time>
      </trkpt>
      <trkpt lat="49.36768" lon="-1.77949">
        <time>2023-08-22T15:54:52.972+00:00</time>
      </trkpt>
      <trkpt lat="49.3677" lon="-1.77943">
        <time>2023-08-22T15:54:57.518+00:00</time>
      </trkpt>
      <trkpt lat="49.3677" lon="-1.77936">
        <time>2023-08-22T15:55:01.705+00:00</time>
      </trkpt>
      <trkpt lat="49.36772" lon="-1.77929">
        <time>2023-08-22T15:55:06.371+00:00</time>
      </trkpt>
      <trkpt lat="49.36773" lon="-1.77923">
        <time>2023-08-22T15:55:11.636+00:00</time>
      </trkpt>
      <trkpt lat="49.36773" lon="-1.77916">
        <time>2023-08-22T15:55:16.063+00:00</time>
      </trkpt>
      <trkpt lat="49.36774" lon="-1.7791">
        <time>2023-08-22T15:55:20.728+00:00</time>
      </trkpt>
      <trkpt lat="49.36775" lon="-1.77904">
        <time>2023-08-22T15:55:25.354+00:00</time>
      </trkpt>
      <trkpt lat="49.36773" lon="-1.77898">
        <time>2023-08-22T15:55:29.900+00:00</time>
      </trkpt>
      <trkpt lat="49.36773" lon="-1.77893">
        <time>2023-08-22T15:55:34.086+00:00</time>
      </trkpt>
      <trkpt lat="49.36773" lon="-1.77889">
        <time>2023-08-22T15:55:38.512+00:00</time>
      </trkpt>
      <trkpt lat="49.36772" lon="-1.77884">
        <time>2023-08-22T15:55:42.700+00:00</time>
      </trkpt>
      <trkpt lat="49.36771" lon="-1.77878">
        <time>2023-08-22T15:55:47.125+00:00</time>
      </trkpt>
      <trkpt lat="49.36771" lon="-1.77873">
        <time>2023-08-22T15:55:51.312+00:00</time>
      </trkpt>
      <trkpt lat="49.36773" lon="-1.77867">
        <time>2023-08-22T15:55:55.480+00:00</time>
      </trkpt>
      <trkpt lat="49.36776" lon="-1.77861">
        <time>2023-08-22T15:55:59.906+00:00</time>
      </trkpt>
      <trkpt lat="49.3678" lon="-1.77857">
        <time>2023-08-22T15:56:04.451+00:00</time>
      </trkpt>
      <trkpt lat="49.36783" lon="-1.77855">
        <time>2023-08-22T15:56:08.981+00:00</time>
      </trkpt>
      <trkpt lat="49.36787" lon="-1.77852">
        <time>2023-08-22T15:56:13.182+00:00</time>
      </trkpt>
      <trkpt lat="49.36789" lon="-1.77847">
        <time>2023-08-22T15:56:17.368+00:00</time>
      </trkpt>
      <trkpt lat="49.36789" lon="-1.77841">
        <time>2023-08-22T15:56:21.552+00:00</time>
      </trkpt>
      <trkpt lat="49.36788" lon="-1.77835">
        <time>2023-08-22T15:56:25.736+00:00</time>
      </trkpt>
      <trkpt lat="49.36786" lon="-1.77829">
        <time>2023-08-22T15:56:29.901+00:00</time>
      </trkpt>
      <trkpt lat="49.36785" lon="-1.77825">
        <time>2023-08-22T15:56:34.442+00:00</time>
      </trkpt>
      <trkpt lat="49.36784" lon="-1.7782">
        <time>2023-08-22T15:56:38.507+00:00</time>
      </trkpt>
      <trkpt lat="49.36785" lon="-1.77815">
        <time>2023-08-22T15:56:43.434+00:00</time>
      </trkpt>
      <trkpt lat="49.36784" lon="-1.77809">
        <time>2023-08-22T15:56:47.358+00:00</time>
      </trkpt>
      <trkpt lat="49.36783" lon="-1.77803">
        <time>2023-08-22T15:56:51.304+00:00</time>
      </trkpt>
      <trkpt lat="49.36782" lon="-1.77797">
        <time>2023-08-22T15:56:55.968+00:00</time>
      </trkpt>
      <trkpt lat="49.36783" lon="-1.7779">
        <time>2023-08-22T15:56:59.914+00:00</time>
      </trkpt>
      <trkpt lat="49.36783" lon="-1.77785">
        <time>2023-08-22T15:57:04.558+00:00</time>
      </trkpt>
      <trkpt lat="49.36784" lon="-1.77778">
        <time>2023-08-22T15:57:09.342+00:00</time>
      </trkpt>
      <trkpt lat="49.36785" lon="-1.77772">
        <time>2023-08-22T15:57:13.889+00:00</time>
      </trkpt>
      <trkpt lat="49.36787" lon="-1.77765">
        <time>2023-08-22T15:57:18.317+00:00</time>
      </trkpt>
      <trkpt lat="49.36787" lon="-1.77759">
        <time>2023-08-22T15:57:22.487+00:00</time>
      </trkpt>
      <trkpt lat="49.36787" lon="-1.77752">
        <time>2023-08-22T15:57:26.555+00:00</time>
      </trkpt>
      <trkpt lat="49.36787" lon="-1.77745">
        <time>2023-08-22T15:57:31.101+00:00</time>
      </trkpt>
      <trkpt lat="49.36787" lon="-1.77738">
        <time>2023-08-22T15:57:35.767+00:00</time>
      </trkpt>
      <trkpt lat="49.36787" lon="-1.77732">
        <time>2023-08-22T15:57:39.954+00:00</time>
      </trkpt>
      <trkpt lat="49.36788" lon="-1.77726">
        <time>2023-08-22T15:57:44.140+00:00</time>
      </trkpt>
      <trkpt lat="49.36788" lon="-1.77721">
        <time>2023-08-22T15:57:48.599+00:00</time>
      </trkpt>
      <trkpt lat="49.36789" lon="-1.77717">
        <time>2023-08-22T15:57:52.639+00:00</time>
      </trkpt>
      <trkpt lat="49.3679" lon="-1.77711">
        <time>2023-08-22T15:57:57.055+00:00</time>
      </trkpt>
      <trkpt lat="49.36791" lon="-1.77704">
        <time>2023-08-22T15:58:01.128+00:00</time>
      </trkpt>
      <trkpt lat="49.36791" lon="-1.77698">
        <time>2023-08-22T15:58:05.794+00:00</time>
      </trkpt>
      <trkpt lat="49.36795" lon="-1.77692">
        <ele>1</ele>
        <time>2023-08-22T15:58:10.339+00:00</time>
      </trkpt>
      <trkpt lat="49.36797" lon="-1.77689">
        <ele>1</ele>
        <time>2023-08-22T15:58:14.525+00:00</time>
      </trkpt>
      <trkpt lat="49.36797" lon="-1.77685">
        <ele>1</ele>
        <time>2023-08-22T15:58:19.069+00:00</time>
      </trkpt>
      <trkpt lat="49.36798" lon="-1.77679">
        <ele>1</ele>
        <time>2023-08-22T15:58:23.713+00:00</time>
      </trkpt>
      <trkpt lat="49.36799" lon="-1.77673">
        <ele>1</ele>
        <time>2023-08-22T15:58:27.805+00:00</time>
      </trkpt>
      <trkpt lat="49.36801" lon="-1.77668">
        <ele>1</ele>
        <time>2023-08-22T15:58:31.967+00:00</time>
      </trkpt>
      <trkpt lat="49.36803" lon="-1.77662">
        <ele>1</ele>
        <time>2023-08-22T15:58:36.632+00:00</time>
      </trkpt>
      <trkpt lat="49.36804" lon="-1.77657">
        <ele>1</ele>
        <time>2023-08-22T15:58:41.177+00:00</time>
      </trkpt>
      <trkpt lat="49.36805" lon="-1.77652">
        <ele>1</ele>
        <time>2023-08-22T15:58:45.343+00:00</time>
      </trkpt>
      <trkpt lat="49.36808" lon="-1.77648">
        <ele>1</ele>
        <time>2023-08-22T15:58:49.796+00:00</time>
      </trkpt>
      <trkpt lat="49.36809" lon="-1.77643">
        <ele>1</ele>
        <time>2023-08-22T15:58:54.311+00:00</time>
      </trkpt>
      <trkpt lat="49.36809" lon="-1.77637">
        <ele>1</ele>
        <time>2023-08-22T15:58:58.376+00:00</time>
      </trkpt>
      <trkpt lat="49.36809" lon="-1.77631">
        <ele>1</ele>
        <time>2023-08-22T15:59:02.564+00:00</time>
      </trkpt>
      <trkpt lat="49.36809" lon="-1.77625">
        <ele>1</ele>
        <time>2023-08-22T15:59:07.091+00:00</time>
      </trkpt>
      <trkpt lat="49.36809" lon="-1.77619">
        <ele>1</ele>
        <time>2023-08-22T15:59:11.157+00:00</time>
      </trkpt>
      <trkpt lat="49.3681" lon="-1.77613">
        <ele>1</ele>
        <time>2023-08-22T15:59:15.804+00:00</time>
      </trkpt>
      <trkpt lat="49.36811" lon="-1.77607">
        <ele>1</ele>
        <time>2023-08-22T15:59:19.888+00:00</time>
      </trkpt>
      <trkpt lat="49.36811" lon="-1.77601">
        <ele>1.1</ele>
        <time>2023-08-22T15:59:24.554+00:00</time>
      </trkpt>
      <trkpt lat="49.36812" lon="-1.77596">
        <ele>1.1</ele>
        <time>2023-08-22T15:59:28.722+00:00</time>
      </trkpt>
      <trkpt lat="49.36813" lon="-1.7759">
        <ele>1.2</ele>
        <time>2023-08-22T15:59:32.924+00:00</time>
      </trkpt>
      <trkpt lat="49.36814" lon="-1.77583">
        <ele>1.3</ele>
        <time>2023-08-22T15:59:37.589+00:00</time>
      </trkpt>
      <trkpt lat="49.36815" lon="-1.77577">
        <ele>1.4</ele>
        <time>2023-08-22T15:59:41.536+00:00</time>
      </trkpt>
      <trkpt lat="49.36816" lon="-1.77571">
        <ele>1.4</ele>
        <time>2023-08-22T15:59:45.363+00:00</time>
      </trkpt>
      <trkpt lat="49.36816" lon="-1.77565">
        <ele>1.4</ele>
        <time>2023-08-22T15:59:50.386+00:00</time>
      </trkpt>
      <trkpt lat="49.36817" lon="-1.77561">
        <ele>1.4</ele>
        <time>2023-08-22T15:59:54.332+00:00</time>
      </trkpt>
      <trkpt lat="49.36819" lon="-1.77556">
        <ele>1.5</ele>
        <time>2023-08-22T15:59:58.517+00:00</time>
      </trkpt>
      <trkpt lat="49.36819" lon="-1.77549">
        <ele>1.6</ele>
        <time>2023-08-22T16:00:03.182+00:00</time>
      </trkpt>
      <trkpt lat="49.36818" lon="-1.77544">
        <ele>1.7</ele>
        <time>2023-08-22T16:00:07.965+00:00</time>
      </trkpt>
      <trkpt lat="49.36816" lon="-1.77538">
        <ele>1.8</ele>
        <time>2023-08-22T16:00:12.151+00:00</time>
      </trkpt>
      <trkpt lat="49.36816" lon="-1.77532">
        <ele>1.9</ele>
        <time>2023-08-22T16:00:16.694+00:00</time>
      </trkpt>
      <trkpt lat="49.36815" lon="-1.77524">
        <ele>2</ele>
        <time>2023-08-22T16:00:21.359+00:00</time>
      </trkpt>
      <trkpt lat="49.36814" lon="-1.77519">
        <ele>2</ele>
        <time>2023-08-22T16:00:25.544+00:00</time>
      </trkpt>
      <trkpt lat="49.36814" lon="-1.77512">
        <ele>2</ele>
        <time>2023-08-22T16:00:30.207+00:00</time>
      </trkpt>
      <trkpt lat="49.36814" lon="-1.77506">
        <ele>2</ele>
        <time>2023-08-22T16:00:34.392+00:00</time>
      </trkpt>
      <trkpt lat="49.36813" lon="-1.77501">
        <ele>2</ele>
        <time>2023-08-22T16:00:38.578+00:00</time>
      </trkpt>
      <trkpt lat="49.36812" lon="-1.77495">
        <ele>2</ele>
        <time>2023-08-22T16:00:43.124+00:00</time>
      </trkpt>
      <trkpt lat="49.36811" lon="-1.77489">
        <ele>2.1</ele>
        <time>2023-08-22T16:00:47.787+00:00</time>
      </trkpt>
      <trkpt lat="49.36809" lon="-1.77484">
        <ele>2.1</ele>
        <time>2023-08-22T16:00:52.559+00:00</time>
      </trkpt>
      <trkpt lat="49.36809" lon="-1.7748">
        <ele>2.1</ele>
        <time>2023-08-22T16:00:56.897+00:00</time>
      </trkpt>
      <trkpt lat="49.36807" lon="-1.77479">
        <ele>2.1</ele>
        <time>2023-08-22T16:01:36.572+00:00</time>
      </trkpt>
      <trkpt lat="49.36804" lon="-1.77475">
        <ele>2</ele>
        <time>2023-08-22T16:01:41.081+00:00</time>
      </trkpt>
      <trkpt lat="49.36801" lon="-1.77467">
        <ele>2.1</ele>
        <time>2023-08-22T16:01:45.640+00:00</time>
      </trkpt>
      <trkpt lat="49.36799" lon="-1.7746">
        <ele>2.3</ele>
        <time>2023-08-22T16:01:49.692+00:00</time>
      </trkpt>
      <trkpt lat="49.36796" lon="-1.77455">
        <ele>2.4</ele>
        <time>2023-08-22T16:01:54.198+00:00</time>
      </trkpt>
      <trkpt lat="49.36795" lon="-1.77448">
        <ele>2.5</ele>
        <time>2023-08-22T16:01:58.204+00:00</time>
      </trkpt>
      <trkpt lat="49.36795" lon="-1.77441">
        <ele>2.6</ele>
        <time>2023-08-22T16:02:02.265+00:00</time>
      </trkpt>
      <trkpt lat="49.36795" lon="-1.77435">
        <ele>2.6</ele>
        <time>2023-08-22T16:02:06.204+00:00</time>
      </trkpt>
      <trkpt lat="49.36793" lon="-1.7743">
        <ele>2.5</ele>
        <time>2023-08-22T16:02:10.878+00:00</time>
      </trkpt>
      <trkpt lat="49.36791" lon="-1.77426">
        <ele>2.5</ele>
        <time>2023-08-22T16:02:23.981+00:00</time>
      </trkpt>
      <trkpt lat="49.3679" lon="-1.77417">
        <ele>2.4</ele>
        <time>2023-08-22T16:02:28.721+00:00</time>
      </trkpt>
      <trkpt lat="49.36785" lon="-1.77409">
        <ele>2.5</ele>
        <time>2023-08-22T16:02:32.625+00:00</time>
      </trkpt>
      <trkpt lat="49.36781" lon="-1.77401">
        <ele>2.6</ele>
        <time>2023-08-22T16:02:36.981+00:00</time>
      </trkpt>
      <trkpt lat="49.36779" lon="-1.77396">
        <ele>2.8</ele>
        <time>2023-08-22T16:02:41.115+00:00</time>
      </trkpt>
      <trkpt lat="49.36778" lon="-1.77389">
        <ele>3</ele>
        <time>2023-08-22T16:02:45.250+00:00</time>
      </trkpt>
      <trkpt lat="49.36778" lon="-1.77383">
        <ele>3</ele>
        <time>2023-08-22T16:02:49.204+00:00</time>
      </trkpt>
      <trkpt lat="49.36774" lon="-1.7738">
        <ele>2.8</ele>
        <time>2023-08-22T16:02:53.757+00:00</time>
      </trkpt>
      <trkpt lat="49.3677" lon="-1.77377">
        <ele>2.7</ele>
        <time>2023-08-22T16:02:57.950+00:00</time>
      </trkpt>
      <trkpt lat="49.36766" lon="-1.77374">
        <ele>2.6</ele>
        <time>2023-08-22T16:03:02.124+00:00</time>
      </trkpt>
      <trkpt lat="49.36764" lon="-1.7737">
        <ele>2.5</ele>
        <time>2023-08-22T16:03:06.316+00:00</time>
      </trkpt>
      <trkpt lat="49.3676" lon="-1.77366">
        <ele>2.4</ele>
        <time>2023-08-22T16:03:10.800+00:00</time>
      </trkpt>
      <trkpt lat="49.36756" lon="-1.77363">
        <ele>2.2</ele>
        <time>2023-08-22T16:03:14.884+00:00</time>
      </trkpt>
      <trkpt lat="49.36753" lon="-1.7736">
        <ele>2.2</ele>
        <time>2023-08-22T16:03:18.981+00:00</time>
      </trkpt>
      <trkpt lat="49.36751" lon="-1.77357">
        <ele>2.2</ele>
        <time>2023-08-22T16:03:23.331+00:00</time>
      </trkpt>
      <trkpt lat="49.36748" lon="-1.77352">
        <ele>2.3</ele>
        <time>2023-08-22T16:03:27.328+00:00</time>
      </trkpt>
      <trkpt lat="49.36746" lon="-1.77347">
        <ele>2.4</ele>
        <time>2023-08-22T16:03:31.522+00:00</time>
      </trkpt>
      <trkpt lat="49.36744" lon="-1.77342">
        <ele>2.6</ele>
        <time>2023-08-22T16:03:36.137+00:00</time>
      </trkpt>
      <trkpt lat="49.36742" lon="-1.77337">
        <ele>2.6</ele>
        <time>2023-08-22T16:03:40.152+00:00</time>
      </trkpt>
      <trkpt lat="49.36739" lon="-1.77332">
        <ele>2.6</ele>
        <time>2023-08-22T16:03:44.345+00:00</time>
      </trkpt>
      <trkpt lat="49.36737" lon="-1.77328">
        <ele>2.5</ele>
        <time>2023-08-22T16:03:48.537+00:00</time>
      </trkpt>
      <trkpt lat="49.36734" lon="-1.77322">
        <ele>2.4</ele>
        <time>2023-08-22T16:03:53.792+00:00</time>
      </trkpt>
      <trkpt lat="49.36731" lon="-1.77316">
        <ele>2.3</ele>
        <time>2023-08-22T16:03:58.299+00:00</time>
      </trkpt>
      <trkpt lat="49.3673" lon="-1.7731">
        <ele>2.3</ele>
        <time>2023-08-22T16:04:02.314+00:00</time>
      </trkpt>
      <trkpt lat="49.3673" lon="-1.77304">
        <ele>2.3</ele>
        <time>2023-08-22T16:04:06.981+00:00</time>
      </trkpt>
      <trkpt lat="49.36729" lon="-1.773">
        <ele>2.5</ele>
        <time>2023-08-22T16:04:11.166+00:00</time>
      </trkpt>
      <trkpt lat="49.36728" lon="-1.77296">
        <ele>2.6</ele>
        <time>2023-08-22T16:04:15.356+00:00</time>
      </trkpt>
      <trkpt lat="49.36727" lon="-1.77291">
        <ele>2.7</ele>
        <time>2023-08-22T16:04:19.305+00:00</time>
      </trkpt>
      <trkpt lat="49.36723" lon="-1.77287">
        <ele>2.7</ele>
        <time>2023-08-22T16:04:23.800+00:00</time>
      </trkpt>
      <trkpt lat="49.3672" lon="-1.77283">
        <ele>2.8</ele>
        <time>2023-08-22T16:04:28.145+00:00</time>
      </trkpt>
      <trkpt lat="49.36717" lon="-1.77279">
        <ele>2.8</ele>
        <time>2023-08-22T16:04:32.334+00:00</time>
      </trkpt>
      <trkpt lat="49.36718" lon="-1.77277">
        <ele>2.8</ele>
        <time>2023-08-22T16:04:36.981+00:00</time>
      </trkpt>
      <trkpt lat="49.36717" lon="-1.7727">
        <ele>2.9</ele>
        <time>2023-08-22T16:04:41.428+00:00</time>
      </trkpt>
      <trkpt lat="49.36718" lon="-1.77264">
        <ele>2.9</ele>
        <time>2023-08-22T16:04:45.497+00:00</time>
      </trkpt>
      <trkpt lat="49.36719" lon="-1.77259">
        <ele>3</ele>
        <time>2023-08-22T16:04:49.566+00:00</time>
      </trkpt>
      <trkpt lat="49.36721" lon="-1.77253">
        <ele>3</ele>
        <time>2023-08-22T16:04:53.755+00:00</time>
      </trkpt>
      <trkpt lat="49.36721" lon="-1.77247">
        <ele>3.1</ele>
        <time>2023-08-22T16:04:57.905+00:00</time>
      </trkpt>
      <trkpt lat="49.36721" lon="-1.7724">
        <ele>3.4</ele>
        <time>2023-08-22T16:05:02.635+00:00</time>
      </trkpt>
      <trkpt lat="49.36721" lon="-1.77234">
        <ele>3.6</ele>
        <time>2023-08-22T16:05:06.764+00:00</time>
      </trkpt>
      <trkpt lat="49.36721" lon="-1.77227">
        <ele>3.8</ele>
        <time>2023-08-22T16:05:11.312+00:00</time>
      </trkpt>
      <trkpt lat="49.36721" lon="-1.77222">
        <ele>4</ele>
        <time>2023-08-22T16:05:15.502+00:00</time>
      </trkpt>
      <trkpt lat="49.3672" lon="-1.77217">
        <ele>4.1</ele>
        <time>2023-08-22T16:05:20.074+00:00</time>
      </trkpt>
      <trkpt lat="49.3672" lon="-1.77213">
        <ele>4.3</ele>
        <time>2023-08-22T16:05:24.123+00:00</time>
      </trkpt>
      <trkpt lat="49.36721" lon="-1.77209">
        <ele>4.4</ele>
        <time>2023-08-22T16:05:28.192+00:00</time>
      </trkpt>
      <trkpt lat="49.36722" lon="-1.77203">
        <ele>4.7</ele>
        <time>2023-08-22T16:05:32.382+00:00</time>
      </trkpt>
      <trkpt lat="49.36724" lon="-1.77197">
        <ele>5</ele>
        <time>2023-08-22T16:05:36.572+00:00</time>
      </trkpt>
      <trkpt lat="49.36724" lon="-1.77192">
        <ele>5.2</ele>
        <time>2023-08-22T16:05:40.523+00:00</time>
      </trkpt>
      <trkpt lat="49.36723" lon="-1.77188">
        <ele>5.3</ele>
        <time>2023-08-22T16:05:44.592+00:00</time>
      </trkpt>
      <trkpt lat="49.36722" lon="-1.77181">
        <ele>5.5</ele>
        <time>2023-08-22T16:05:49.379+00:00</time>
      </trkpt>
      <trkpt lat="49.36723" lon="-1.77177">
        <ele>4</ele>
        <time>2023-08-22T16:05:53.328+00:00</time>
      </trkpt>
      <trkpt lat="49.36724" lon="-1.77173">
        <ele>4</ele>
        <time>2023-08-22T16:05:58.355+00:00</time>
      </trkpt>
      <trkpt lat="49.36723" lon="-1.77168">
        <ele>4</ele>
        <time>2023-08-22T16:06:03.124+00:00</time>
      </trkpt>
      <trkpt lat="49.36724" lon="-1.77162">
        <ele>4</ele>
        <time>2023-08-22T16:06:07.194+00:00</time>
      </trkpt>
      <trkpt lat="49.36723" lon="-1.77158">
        <ele>4</ele>
        <time>2023-08-22T16:06:11.383+00:00</time>
      </trkpt>
      <trkpt lat="49.36721" lon="-1.77153">
        <ele>4</ele>
        <time>2023-08-22T16:06:15.913+00:00</time>
      </trkpt>
      <trkpt lat="49.3672" lon="-1.77148">
        <ele>5</ele>
        <time>2023-08-22T16:06:20.103+00:00</time>
      </trkpt>
      <trkpt lat="49.36719" lon="-1.77143">
        <ele>5</ele>
        <time>2023-08-22T16:06:24.173+00:00</time>
      </trkpt>
      <trkpt lat="49.36719" lon="-1.77138">
        <ele>5</ele>
        <time>2023-08-22T16:06:28.722+00:00</time>
      </trkpt>
      <trkpt lat="49.36713" lon="-1.77124">
        <ele>6</ele>
        <time>2023-08-22T16:06:55.734+00:00</time>
      </trkpt>
      <trkpt lat="49.36713" lon="-1.77124">
        <ele>6</ele>
        <time>2023-08-22T16:06:59.324+00:00</time>
      </trkpt>
      <trkpt lat="49.36713" lon="-1.77123">
        <ele>6</ele>
        <time>2023-08-22T16:07:03.512+00:00</time>
      </trkpt>
      <trkpt lat="49.36713" lon="-1.77123">
        <ele>6</ele>
        <time>2023-08-22T16:07:08.802+00:00</time>
      </trkpt>
      <trkpt lat="49.36712" lon="-1.77123">
        <ele>6</ele>
        <time>2023-08-22T16:07:13.771+00:00</time>
      </trkpt>
      <trkpt lat="49.36712" lon="-1.77123">
        <ele>6</ele>
        <time>2023-08-22T16:07:17.802+00:00</time>
      </trkpt>
      <trkpt lat="49.36712" lon="-1.77122">
        <ele>6</ele>
        <time>2023-08-22T16:07:22.822+00:00</time>
      </trkpt>
      <trkpt lat="49.36713" lon="-1.77123">
        <ele>6</ele>
        <time>2023-08-22T16:07:27.827+00:00</time>
      </trkpt>
      <trkpt lat="49.36713" lon="-1.77122">
        <ele>6</ele>
        <time>2023-08-22T16:07:32.774+00:00</time>
      </trkpt>
      <trkpt lat="49.36706" lon="-1.77099">
        <ele>5</ele>
        <time>2023-08-22T16:07:41.792+00:00</time>
      </trkpt>
      <trkpt lat="49.36708" lon="-1.77092">
        <ele>8</ele>
        <time>2023-08-22T16:07:46.804+00:00</time>
      </trkpt>
      <trkpt lat="49.36709" lon="-1.7709">
        <ele>8</ele>
        <time>2023-08-22T16:07:51.765+00:00</time>
      </trkpt>
      <trkpt lat="49.36711" lon="-1.77092">
        <ele>8</ele>
        <time>2023-08-22T16:07:56.314+00:00</time>
      </trkpt>
      <trkpt lat="49.36716" lon="-1.77095">
        <ele>8</ele>
        <time>2023-08-22T16:08:00.332+00:00</time>
      </trkpt>
      <trkpt lat="49.36719" lon="-1.771">
        <ele>6</ele>
        <time>2023-08-22T16:08:05.341+00:00</time>
      </trkpt>
      <trkpt lat="49.36719" lon="-1.77098">
        <ele>6</ele>
        <time>2023-08-22T16:08:09.383+00:00</time>
      </trkpt>
      <trkpt lat="49.36719" lon="-1.77091">
        <ele>8</ele>
        <time>2023-08-22T16:08:13.556+00:00</time>
      </trkpt>
      <trkpt lat="49.36722" lon="-1.77085">
        <ele>8</ele>
        <time>2023-08-22T16:08:17.528+00:00</time>
      </trkpt>
      <trkpt lat="49.36723" lon="-1.77079">
        <ele>8</ele>
        <time>2023-08-22T16:08:22.202+00:00</time>
      </trkpt>
      <trkpt lat="49.36726" lon="-1.77076">
        <ele>8</ele>
        <time>2023-08-22T16:08:43.163+00:00</time>
      </trkpt>
      <trkpt lat="49.36727" lon="-1.77076">
        <ele>8</ele>
        <time>2023-08-22T16:08:47.354+00:00</time>
      </trkpt>
      <trkpt lat="49.36727" lon="-1.77074">
        <ele>8</ele>
        <time>2023-08-22T16:08:51.906+00:00</time>
      </trkpt>
      <trkpt lat="49.36727" lon="-1.77071">
        <ele>8</ele>
        <time>2023-08-22T16:08:56.576+00:00</time>
      </trkpt>
      <trkpt lat="49.36727" lon="-1.77065">
        <ele>9</ele>
        <time>2023-08-22T16:09:00.169+00:00</time>
      </trkpt>
      <trkpt lat="49.36728" lon="-1.77059">
        <ele>9</ele>
        <time>2023-08-22T16:09:04.960+00:00</time>
      </trkpt>
      <trkpt lat="49.36729" lon="-1.77054">
        <ele>9</ele>
        <time>2023-08-22T16:09:09.151+00:00</time>
      </trkpt>
      <trkpt lat="49.36729" lon="-1.77051">
        <ele>9</ele>
        <time>2023-08-22T16:09:13.342+00:00</time>
      </trkpt>
      <trkpt lat="49.3673" lon="-1.77045">
        <ele>9</ele>
        <time>2023-08-22T16:09:18.242+00:00</time>
      </trkpt>
      <trkpt lat="49.36732" lon="-1.7703">
        <ele>10</ele>
        <time>2023-08-22T16:09:49.228+00:00</time>
      </trkpt>
      <trkpt lat="49.36733" lon="-1.7703">
        <ele>10</ele>
        <time>2023-08-22T16:09:53.547+00:00</time>
      </trkpt>
      <trkpt lat="49.36734" lon="-1.77026">
        <ele>10</ele>
        <time>2023-08-22T16:09:58.765+00:00</time>
      </trkpt>
      <trkpt lat="49.36736" lon="-1.77024">
        <ele>10</ele>
        <time>2023-08-22T16:10:02.923+00:00</time>
      </trkpt>
      <trkpt lat="49.36737" lon="-1.77021">
        <ele>11</ele>
        <time>2023-08-22T16:10:07.524+00:00</time>
      </trkpt>
      <trkpt lat="49.36739" lon="-1.77017">
        <ele>11</ele>
        <time>2023-08-22T16:10:24.962+00:00</time>
      </trkpt>
      <trkpt lat="49.36737" lon="-1.77021">
        <ele>11</ele>
        <time>2023-08-22T16:10:28.981+00:00</time>
      </trkpt>
      <trkpt lat="49.36735" lon="-1.77023">
        <ele>10</ele>
        <time>2023-08-22T16:10:32.981+00:00</time>
      </trkpt>
      <trkpt lat="49.36732" lon="-1.77027">
        <ele>10</ele>
        <time>2023-08-22T16:10:37.548+00:00</time>
      </trkpt>
      <trkpt lat="49.3673" lon="-1.77032">
        <ele>10</ele>
        <time>2023-08-22T16:10:42.319+00:00</time>
      </trkpt>
      <trkpt lat="49.36723" lon="-1.77046">
        <ele>9</ele>
        <time>2023-08-22T16:12:58.941+00:00</time>
      </trkpt>
      <trkpt lat="49.3672" lon="-1.77044">
        <ele>9</ele>
        <time>2023-08-22T16:13:03.138+00:00</time>
      </trkpt>
      <trkpt lat="49.36717" lon="-1.77042">
        <ele>10</ele>
        <time>2023-08-22T16:13:07.694+00:00</time>
      </trkpt>
      <trkpt lat="49.36715" lon="-1.77039">
        <ele>10</ele>
        <time>2023-08-22T16:13:11.770+00:00</time>
      </trkpt>
      <trkpt lat="49.36713" lon="-1.77037">
        <ele>10</ele>
        <time>2023-08-22T16:13:15.927+00:00</time>
      </trkpt>
      <trkpt lat="49.36711" lon="-1.77031">
        <ele>10</ele>
        <time>2023-08-22T16:13:20.766+00:00</time>
      </trkpt>
      <trkpt lat="49.3671" lon="-1.77027">
        <ele>10</ele>
        <time>2023-08-22T16:13:25.081+00:00</time>
      </trkpt>
      <trkpt lat="49.36708" lon="-1.77024">
        <ele>8</ele>
        <time>2023-08-22T16:13:29.105+00:00</time>
      </trkpt>
      <trkpt lat="49.36704" lon="-1.77018">
        <ele>8</ele>
        <time>2023-08-22T16:13:33.685+00:00</time>
      </trkpt>
      <trkpt lat="49.367" lon="-1.77013">
        <ele>10</ele>
        <time>2023-08-22T16:13:37.483+00:00</time>
      </trkpt>
      <trkpt lat="49.36697" lon="-1.77008">
        <ele>10</ele>
        <time>2023-08-22T16:13:42.100+00:00</time>
      </trkpt>
      <trkpt lat="49.36693" lon="-1.77003">
        <ele>10</ele>
        <time>2023-08-22T16:13:46.800+00:00</time>
      </trkpt>
      <trkpt lat="49.36691" lon="-1.76997">
        <ele>10</ele>
        <time>2023-08-22T16:13:50.933+00:00</time>
      </trkpt>
      <trkpt lat="49.36688" lon="-1.76992">
        <ele>10</ele>
        <time>2023-08-22T16:13:55.128+00:00</time>
      </trkpt>
      <trkpt lat="49.36684" lon="-1.76987">
        <ele>10</ele>
        <time>2023-08-22T16:13:59.564+00:00</time>
      </trkpt>
      <trkpt lat="49.36682" lon="-1.76984">
        <ele>11</ele>
        <time>2023-08-22T16:14:03.720+00:00</time>
      </trkpt>
      <trkpt lat="49.36679" lon="-1.76981">
        <ele>9</ele>
        <time>2023-08-22T16:14:07.557+00:00</time>
      </trkpt>
      <trkpt lat="49.36672" lon="-1.76971">
        <ele>9</ele>
        <time>2023-08-22T16:14:21.505+00:00</time>
      </trkpt>
      <trkpt lat="49.36672" lon="-1.76968">
        <ele>9</ele>
        <time>2023-08-22T16:14:26.802+00:00</time>
      </trkpt>
      <trkpt lat="49.3667" lon="-1.76962">
        <ele>9</ele>
        <time>2023-08-22T16:14:30.696+00:00</time>
      </trkpt>
      <trkpt lat="49.36668" lon="-1.76957">
        <ele>11</ele>
        <time>2023-08-22T16:14:34.574+00:00</time>
      </trkpt>
      <trkpt lat="49.36665" lon="-1.76953">
        <ele>11</ele>
        <time>2023-08-22T16:14:39.133+00:00</time>
      </trkpt>
    </trkseg>
  </trk>
</gpx>